Time,TemperatureF,DewpointF,PressureIn,WindDirection,WindDirectionDegrees,WindSpeedMPH,WindSpeedGustMPH,Humidity,HourlyPrecipIn,Conditions,Clouds,dailyrainin,SoftwareType,DateUTC
2013-11-23 00:00:00,17.1,-1.1,30.32,South,186,0.0,0.0,44,0.00,,---,0.00,VWS V14.01,2013-11-23 07:00:00,
2013-11-23 00:01:00,16.9,-1.2,30.32,South,186,0.0,0.0,44,0.00,,---,0.00,VWS V14.01,2013-11-23 07:01:00,
2013-11-23 00:03:00,16.7,-1.4,30.32,South,186,0.0,0.0,44,0.00,,---,0.00,VWS V14.01,2013-11-23 07:03:00,
2013-11-23 00:05:00,16.5,-1.6,30.32,South,186,0.0,0.0,44,0.00,,---,0.00,VWS V14.01,2013-11-23 07:05:00,
2013-11-23 00:06:00,16.5,-1.6,30.32,South,186,0.0,0.0,44,0.00,,---,0.00,VWS V14.01,2013-11-23 07:06:00,
2013-11-23 00:07:00,16.5,-1.6,30.32,South,186,0.0,0.0,44,0.00,,---,0.00,VWS V14.01,2013-11-23 07:07:00,
2013-11-23 00:08:00,16.3,-1.3,30.32,SSW,197,5.4,5.4,45,0.00,,---,0.00,VWS V14.01,2013-11-23 07:08:00,
2013-11-23 00:10:00,16.5,-1.1,30.32,SSW,200,4.0,4.0,45,0.00,,---,0.00,VWS V14.01,2013-11-23 07:10:00,
2013-11-23 00:11:00,16.7,-0.9,30.32,SSW,199,5.4,5.4,45,0.00,,---,0.00,VWS V14.01,2013-11-23 07:11:00,
2013-11-23 00:12:00,16.7,-0.9,30.32,SSW,198,3.6,4.0,45,0.00,,---,0.00,VWS V14.01,2013-11-23 07:12:00,
2013-11-23 00:13:00,16.9,-0.8,30.32,SSW,197,5.8,5.8,45,0.00,,---,0.00,VWS V14.01,2013-11-23 07:13:00,
2013-11-23 00:15:00,17.1,-1.1,30.32,SSW,200,5.4,5.4,44,0.00,,---,0.00,VWS V14.01,2013-11-23 07:15:00,
2013-11-23 00:16:00,17.4,-0.8,30.32,SSW,200,3.1,3.1,44,0.00,,---,0.00,VWS V14.01,2013-11-23 07:16:00,
2013-11-23 00:17:00,17.4,-0.8,30.32,SSW,199,2.7,4.0,44,0.00,,---,0.00,VWS V14.01,2013-11-23 07:17:00,
2013-11-23 00:18:00,17.4,-0.8,30.32,SSW,200,4.0,4.0,44,0.00,,---,0.00,VWS V14.01,2013-11-23 07:18:00,
2013-11-23 00:20:00,17.4,-0.8,30.32,SSW,198,4.0,4.0,44,0.00,,---,0.00,VWS V14.01,2013-11-23 07:20:00,
2013-11-23 00:21:00,17.4,-0.8,30.32,SSW,198,4.0,4.0,44,0.00,,---,0.00,VWS V14.01,2013-11-23 07:21:00,
2013-11-23 00:22:00,17.2,-0.9,30.32,SSW,197,2.7,3.6,44,0.00,,---,0.00,VWS V14.01,2013-11-23 07:22:00,
2013-11-23 00:23:00,17.2,-0.9,30.32,SSW,197,2.7,3.6,44,0.00,,---,0.00,VWS V14.01,2013-11-23 07:23:00,
2013-11-23 00:24:00,17.2,-0.9,30.32,SSW,197,3.1,3.1,44,0.00,,---,0.00,VWS V14.01,2013-11-23 07:24:00,
2013-11-23 00:25:00,17.1,-1.1,30.32,SSW,197,2.2,2.2,44,0.00,,---,0.00,VWS V14.01,2013-11-23 07:25:00,
2013-11-23 00:27:00,17.1,-1.1,30.32,SSW,197,0.0,0.0,44,0.00,,---,0.00,VWS V14.01,2013-11-23 07:27:00,
2013-11-23 00:28:00,17.1,-1.1,30.32,SSW,197,0.0,0.0,44,0.00,,---,0.00,VWS V14.01,2013-11-23 07:28:00,
2013-11-23 00:29:00,16.9,-1.2,30.32,SSW,197,0.0,0.0,44,0.00,,---,0.00,VWS V14.01,2013-11-23 07:29:00,
2013-11-23 00:30:00,16.7,-1.4,30.32,SSW,197,0.0,0.0,44,0.00,,---,0.00,VWS V14.01,2013-11-23 07:30:00,
2013-11-23 00:33:00,16.7,-1.4,30.32,SSW,197,0.0,0.0,44,0.00,,---,0.00,VWS V14.01,2013-11-23 07:33:00,
2013-11-23 00:34:00,16.7,-1.4,30.32,SSW,197,0.0,0.0,44,0.00,,---,0.00,VWS V14.01,2013-11-23 07:34:00,
2013-11-23 00:35:00,16.5,-1.6,30.32,SSW,197,0.0,0.0,44,0.00,,---,0.00,VWS V14.01,2013-11-23 07:35:00,
2013-11-23 00:38:00,16.5,-1.6,30.32,SSW,197,0.0,0.0,44,0.00,,---,0.00,VWS V14.01,2013-11-23 07:38:00,
2013-11-23 00:39:00,16.5,-1.6,30.32,SSW,197,0.0,0.0,44,0.00,,---,0.00,VWS V14.01,2013-11-23 07:39:00,
2013-11-23 00:40:00,16.5,-1.6,30.32,SSW,197,0.0,0.0,44,0.00,,---,0.00,VWS V14.01,2013-11-23 07:40:00,
2013-11-23 00:43:00,16.5,-1.1,30.32,SSW,196,3.1,3.6,45,0.00,,---,0.00,VWS V14.01,2013-11-23 07:43:00,
2013-11-23 00:44:00,16.5,-1.1,30.32,SSW,196,3.6,4.0,45,0.00,,---,0.00,VWS V14.01,2013-11-23 07:44:00,
2013-11-23 00:45:00,15.4,-1.6,30.32,SSW,193,3.1,4.0,46,0.00,,,0.00,VWS V15.00,2013-11-23 07:45:00,
2013-11-23 00:46:00,16.5,-1.1,30.32,SSW,195,4.0,4.9,45,0.00,,---,0.00,VWS V14.01,2013-11-23 07:46:00,
2013-11-23 00:48:00,16.5,-1.1,30.32,SSW,196,4.0,4.0,45,0.00,,---,0.00,VWS V14.01,2013-11-23 07:48:00,
2013-11-23 00:49:00,16.5,-1.1,30.32,SSW,196,4.0,4.0,45,0.00,,---,0.00,VWS V14.01,2013-11-23 07:49:00,
2013-11-23 00:51:00,16.3,-1.3,30.32,SSW,196,2.7,3.1,45,0.00,,---,0.00,VWS V14.01,2013-11-23 07:51:00,
2013-11-23 00:53:00,16.2,-1.4,30.32,SSW,195,2.7,3.6,45,0.00,,---,0.00,VWS V14.01,2013-11-23 07:53:00,
2013-11-23 00:54:00,16.2,-1.4,30.32,South,190,2.2,3.1,45,0.00,,---,0.00,VWS V14.01,2013-11-23 07:54:00,
2013-11-23 00:56:00,16.2,-1.4,30.32,South,190,3.1,3.1,45,0.00,,---,0.00,VWS V14.01,2013-11-23 07:56:00,
2013-11-23 00:59:00,16.0,-1.6,30.32,South,190,0.0,0.0,45,0.00,,---,0.00,VWS V14.01,2013-11-23 07:59:00,
2013-11-23 01:00:00,16.0,-1.6,30.32,South,189,0.0,0.0,45,0.00,,---,0.00,VWS V14.01,2013-11-23 08:00:00,
2013-11-23 01:01:00,16.0,-1.6,30.32,South,190,2.2,2.7,45,0.00,,---,0.00,VWS V14.01,2013-11-23 08:01:00,
2013-11-23 01:04:00,15.8,-1.8,30.32,South,191,2.7,3.1,45,0.00,,---,0.00,VWS V14.01,2013-11-23 08:04:00,
2013-11-23 01:05:00,15.8,-1.8,30.32,South,190,2.7,3.1,45,0.00,,---,0.00,VWS V14.01,2013-11-23 08:05:00,
2013-11-23 01:06:00,15.8,-1.3,30.32,SSW,192,3.6,4.0,46,0.00,,---,0.00,VWS V14.01,2013-11-23 08:06:00,
2013-11-23 01:09:00,16.0,-1.6,30.32,SSW,198,4.0,4.0,45,0.00,,---,0.00,VWS V14.01,2013-11-23 08:09:00,
2013-11-23 01:10:00,16.0,-1.6,30.32,SSW,198,2.7,3.1,45,0.00,,---,0.00,VWS V14.01,2013-11-23 08:10:00,
2013-11-23 01:11:00,16.0,-1.6,30.32,SSW,198,2.7,2.7,45,0.00,,---,0.00,VWS V14.01,2013-11-23 08:11:00,
2013-11-23 01:14:00,16.0,-1.6,30.32,SSW,198,2.7,2.7,45,0.00,,---,0.00,VWS V14.01,2013-11-23 08:14:00,
2013-11-23 01:15:00,16.0,-1.6,30.32,SSW,198,0.0,2.2,45,0.00,,---,0.00,VWS V14.01,2013-11-23 08:15:00,
2013-11-23 01:16:00,16.0,-1.6,30.32,SSW,198,0.0,0.0,45,0.00,,---,0.00,VWS V14.01,2013-11-23 08:16:00,
2013-11-23 01:19:00,15.8,-1.8,30.32,SSW,198,0.0,0.0,45,0.00,,---,0.00,VWS V14.01,2013-11-23 08:19:00,
2013-11-23 01:20:00,15.8,-1.8,30.32,SSW,198,0.0,0.0,45,0.00,,---,0.00,VWS V14.01,2013-11-23 08:20:00,
2013-11-23 01:21:00,15.8,-1.8,30.32,SSW,198,0.0,0.0,45,0.00,,---,0.00,VWS V14.01,2013-11-23 08:21:00,
2013-11-23 01:24:00,15.4,-2.1,30.32,SSW,198,0.0,0.0,45,0.00,,---,0.00,VWS V14.01,2013-11-23 08:24:00,
2013-11-23 01:25:00,15.3,-2.3,30.32,SSW,198,0.0,0.0,45,0.00,,---,0.00,VWS V14.01,2013-11-23 08:25:00,
2013-11-23 01:26:00,15.3,-2.3,30.32,SSW,198,0.0,0.0,45,0.00,,---,0.00,VWS V14.01,2013-11-23 08:26:00,
2013-11-23 01:30:00,15.1,-2.0,30.32,SSW,198,2.2,2.2,46,0.00,,---,0.00,VWS V14.01,2013-11-23 08:30:00,
2013-11-23 01:31:00,15.1,-2.0,30.32,SSW,198,2.7,2.7,46,0.00,,---,0.00,VWS V14.01,2013-11-23 08:31:00,
2013-11-23 01:35:00,15.3,-1.8,30.32,SSW,200,3.1,3.6,46,0.00,,---,0.00,VWS V14.01,2013-11-23 08:35:00,
2013-11-23 01:36:00,15.3,-1.8,30.32,SSW,200,3.1,4.0,46,0.00,,---,0.00,VWS V14.01,2013-11-23 08:36:00,
2013-11-23 01:37:00,15.3,-1.8,30.32,SSW,199,2.2,3.6,46,0.00,,---,0.00,VWS V14.01,2013-11-23 08:37:00,
2013-11-23 01:40:00,15.4,-1.6,30.32,SSW,196,4.9,4.9,46,0.00,,---,0.00,VWS V14.01,2013-11-23 08:40:00,
2013-11-23 01:41:00,15.4,-1.6,30.32,SSW,194,4.9,4.9,46,0.00,,---,0.00,VWS V14.01,2013-11-23 08:41:00,
2013-11-23 01:42:00,15.4,-1.6,30.32,SSW,199,3.6,3.6,46,0.00,,---,0.00,VWS V14.01,2013-11-23 08:42:00,
2013-11-23 01:45:00,15.4,-1.6,30.32,SSW,193,2.7,3.1,46,0.00,,---,0.00,VWS V14.01,2013-11-23 08:45:00,
2013-11-23 01:46:00,15.4,-1.6,30.32,SSW,195,4.0,4.0,46,0.00,,---,0.00,VWS V14.01,2013-11-23 08:46:00,
2013-11-23 01:47:00,15.4,-1.6,30.32,SSW,197,3.6,3.6,46,0.00,,---,0.00,VWS V14.01,2013-11-23 08:47:00,
2013-11-23 01:50:00,15.4,-1.6,30.32,SSW,196,4.0,4.0,46,0.00,,---,0.00,VWS V14.01,2013-11-23 08:50:00,
2013-11-23 01:51:00,15.4,-1.6,30.32,SSW,196,4.0,4.0,46,0.00,,---,0.00,VWS V14.01,2013-11-23 08:51:00,
2013-11-23 01:52:00,15.4,-1.6,30.32,SSW,196,2.7,4.0,46,0.00,,---,0.00,VWS V14.01,2013-11-23 08:52:00,
2013-11-23 01:56:00,15.8,-1.3,30.32,SSW,196,2.7,3.1,46,0.00,,---,0.00,VWS V14.01,2013-11-23 08:56:00,
2013-11-23 01:57:00,15.8,-1.3,30.32,SSW,196,0.0,2.2,46,0.00,,---,0.00,VWS V14.01,2013-11-23 08:57:00,
2013-11-23 02:00:00,14.9,-1.7,30.32,SSW,197,0.0,0.0,47,0.00,,,0.00,VWS V15.00,2013-11-23 09:00:00,
2013-11-23 02:01:00,15.4,-1.6,30.32,SSW,196,0.0,0.0,46,0.00,,---,0.00,VWS V14.01,2013-11-23 09:01:00,
2013-11-23 02:02:00,15.4,-1.6,30.32,SSW,196,0.0,0.0,46,0.00,,---,0.00,VWS V14.01,2013-11-23 09:02:00,
2013-11-23 02:06:00,15.1,-2.0,30.32,SSW,196,3.1,3.1,46,0.00,,---,0.00,VWS V14.01,2013-11-23 09:06:00,
2013-11-23 02:07:00,14.9,-2.1,30.32,SSW,198,4.0,4.0,46,0.00,,---,0.00,VWS V14.01,2013-11-23 09:07:00,
2013-11-23 02:08:00,14.9,-2.1,30.32,SSW,197,3.6,4.0,46,0.00,,---,0.00,VWS V14.01,2013-11-23 09:08:00,
2013-11-23 02:11:00,15.1,-2.0,30.32,SSW,200,0.0,2.2,46,0.00,,---,0.00,VWS V14.01,2013-11-23 09:11:00,
2013-11-23 02:12:00,14.9,-2.1,30.32,SSW,197,4.0,4.0,46,0.00,,---,0.00,VWS V14.01,2013-11-23 09:12:00,
2013-11-23 02:13:00,14.9,-2.1,30.32,SSW,197,4.0,4.0,46,0.00,,---,0.00,VWS V14.01,2013-11-23 09:13:00,
2013-11-23 02:15:00,14.7,-1.4,30.32,SSW,196,0.0,0.0,48,0.00,,,0.00,VWS V15.00,2013-11-23 09:15:00,
2013-11-23 02:16:00,14.5,-2.0,30.32,SSW,197,0.0,0.0,47,0.00,,---,0.00,VWS V14.01,2013-11-23 09:16:00,
2013-11-23 02:17:00,14.5,-2.0,30.32,SSW,197,0.0,0.0,47,0.00,,---,0.00,VWS V14.01,2013-11-23 09:17:00,
2013-11-23 02:18:00,14.5,-2.0,30.32,SSW,197,0.0,0.0,47,0.00,,---,0.00,VWS V14.01,2013-11-23 09:18:00,
2013-11-23 02:21:00,14.5,-2.0,30.32,SSW,197,0.0,0.0,47,0.00,,---,0.00,VWS V14.01,2013-11-23 09:21:00,
2013-11-23 02:22:00,14.5,-2.0,30.32,SSW,197,0.0,0.0,47,0.00,,---,0.00,VWS V14.01,2013-11-23 09:22:00,
2013-11-23 02:23:00,14.5,-2.0,30.32,SSW,197,3.1,3.1,47,0.00,,---,0.00,VWS V14.01,2013-11-23 09:23:00,
2013-11-23 02:24:00,14.5,-2.0,30.32,SSW,197,0.0,3.1,47,0.00,,---,0.00,VWS V14.01,2013-11-23 09:24:00,
2013-11-23 02:26:00,14.5,-1.6,30.32,SSW,197,2.2,2.2,48,0.00,,---,0.00,VWS V14.01,2013-11-23 09:26:00,
2013-11-23 02:27:00,14.5,-1.6,30.32,SSW,197,0.0,2.2,48,0.00,,---,0.00,VWS V14.01,2013-11-23 09:27:00,
2013-11-23 02:28:00,14.5,-1.6,30.32,SSW,197,2.2,3.1,48,0.00,,---,0.00,VWS V14.01,2013-11-23 09:28:00,
2013-11-23 02:29:00,14.5,-1.6,30.32,SSW,197,2.7,2.7,48,0.00,,---,0.00,VWS V14.01,2013-11-23 09:29:00,
2013-11-23 02:30:00,14.2,-1.9,30.32,SSW,196,0.0,0.0,48,0.00,,,0.00,VWS V15.00,2013-11-23 09:30:00,
2013-11-23 02:31:00,14.7,-1.4,30.32,SSW,197,0.0,0.0,48,0.00,,---,0.00,VWS V14.01,2013-11-23 09:31:00,
2013-11-23 02:32:00,14.7,-1.4,30.32,SSW,197,0.0,0.0,48,0.00,,---,0.00,VWS V14.01,2013-11-23 09:32:00,
2013-11-23 02:33:00,14.7,-1.4,30.32,SSW,197,0.0,0.0,48,0.00,,---,0.00,VWS V14.01,2013-11-23 09:33:00,
2013-11-23 02:34:00,14.7,-1.4,30.32,SSW,197,0.0,0.0,48,0.00,,---,0.00,VWS V14.01,2013-11-23 09:34:00,
2013-11-23 02:37:00,14.7,-1.4,30.32,SSW,197,0.0,0.0,48,0.00,,---,0.00,VWS V14.01,2013-11-23 09:37:00,
2013-11-23 02:38:00,14.9,-1.2,30.32,SSW,197,0.0,0.0,48,0.00,,---,0.00,VWS V14.01,2013-11-23 09:38:00,
2013-11-23 02:40:00,14.9,-1.2,30.32,SSW,197,0.0,0.0,48,0.00,,---,0.00,VWS V14.01,2013-11-23 09:40:00,
2013-11-23 02:42:00,15.1,-1.1,30.32,SSW,197,0.0,0.0,48,0.00,,---,0.00,VWS V14.01,2013-11-23 09:42:00,
2013-11-23 02:43:00,15.1,-1.1,30.32,SSW,197,0.0,0.0,48,0.00,,---,0.00,VWS V14.01,2013-11-23 09:43:00,
2013-11-23 02:45:00,15.3,-1.3,30.32,SSW,197,0.0,0.0,47,0.00,,---,0.00,VWS V14.01,2013-11-23 09:45:00,
2013-11-23 02:47:00,15.3,-1.3,30.32,SSW,197,0.0,0.0,47,0.00,,---,0.00,VWS V14.01,2013-11-23 09:47:00,
2013-11-23 02:48:00,15.3,-1.3,30.32,SSW,197,0.0,0.0,47,0.00,,---,0.00,VWS V14.01,2013-11-23 09:48:00,
2013-11-23 02:49:00,15.4,-1.2,30.32,SSW,197,0.0,0.0,47,0.00,,---,0.00,VWS V14.01,2013-11-23 09:49:00,
2013-11-23 02:51:00,15.4,-1.2,30.32,SSW,197,0.0,0.0,47,0.00,,---,0.00,VWS V14.01,2013-11-23 09:51:00,
2013-11-23 02:52:00,15.4,-1.2,30.32,SSW,197,0.0,0.0,47,0.00,,---,0.00,VWS V14.01,2013-11-23 09:52:00,
2013-11-23 02:53:00,15.4,-1.2,30.32,SSW,197,0.0,0.0,47,0.00,,---,0.00,VWS V14.01,2013-11-23 09:53:00,
2013-11-23 02:54:00,15.4,-1.2,30.32,SSW,197,0.0,0.0,47,0.00,,---,0.00,VWS V14.01,2013-11-23 09:54:00,
2013-11-23 02:55:00,15.4,-1.2,30.32,SSW,197,0.0,0.0,47,0.00,,---,0.00,VWS V14.01,2013-11-23 09:55:00,
2013-11-23 02:56:00,15.3,-1.3,30.32,SSW,197,0.0,0.0,47,0.00,,---,0.00,VWS V14.01,2013-11-23 09:56:00,
2013-11-23 02:57:00,15.3,-1.3,30.32,SSW,197,0.0,0.0,47,0.00,,---,0.00,VWS V14.01,2013-11-23 09:57:00,
2013-11-23 02:59:00,15.1,-1.5,30.32,SSW,197,0.0,0.0,47,0.00,,---,0.00,VWS V14.01,2013-11-23 09:59:00,
2013-11-23 03:00:00,14.9,-1.7,30.32,SSW,197,0.0,0.0,47,0.00,,---,0.00,VWS V14.01,2013-11-23 10:00:00,
2013-11-23 03:01:00,14.7,-1.8,30.32,SSW,197,0.0,0.0,47,0.00,,---,0.00,VWS V14.01,2013-11-23 10:01:00,
2013-11-23 03:03:00,14.5,-2.0,30.32,SSW,197,0.0,0.0,47,0.00,,---,0.00,VWS V14.01,2013-11-23 10:03:00,
2013-11-23 03:04:00,14.5,-2.0,30.32,SSW,197,0.0,0.0,47,0.00,,---,0.00,VWS V14.01,2013-11-23 10:04:00,
2013-11-23 03:05:00,14.5,-2.0,30.32,SSW,197,0.0,0.0,47,0.00,,---,0.00,VWS V14.01,2013-11-23 10:05:00,
2013-11-23 03:06:00,14.5,-2.0,30.32,SSW,196,0.0,0.0,47,0.00,,---,0.00,VWS V14.01,2013-11-23 10:06:00,
2013-11-23 03:08:00,14.7,-1.8,30.32,SSW,197,2.7,2.7,47,0.00,,---,0.00,VWS V14.01,2013-11-23 10:08:00,
2013-11-23 03:09:00,14.7,-1.4,30.32,SSW,196,2.2,2.7,48,0.00,,---,0.00,VWS V14.01,2013-11-23 10:09:00,
2013-11-23 03:10:00,14.7,-1.4,30.32,SSW,196,0.0,2.2,48,0.00,,---,0.00,VWS V14.01,2013-11-23 10:10:00,
2013-11-23 03:12:00,14.7,-1.8,30.32,SSW,196,0.0,0.0,47,0.00,,---,0.00,VWS V14.01,2013-11-23 10:12:00,
2013-11-23 03:13:00,14.7,-1.8,30.32,SSW,196,0.0,0.0,47,0.00,,---,0.00,VWS V14.01,2013-11-23 10:13:00,
2013-11-23 03:14:00,14.7,-1.8,30.32,SSW,196,0.0,0.0,47,0.00,,---,0.00,VWS V14.01,2013-11-23 10:14:00,
2013-11-23 03:15:00,14.7,-1.4,30.32,SSW,196,0.0,0.0,48,0.00,,---,0.00,VWS V14.01,2013-11-23 10:15:00,
2013-11-23 03:18:00,14.7,-1.8,30.32,SSW,196,0.0,0.0,47,0.00,,---,0.00,VWS V14.01,2013-11-23 10:18:00,
2013-11-23 03:19:00,14.7,-1.8,30.32,SSW,196,0.0,0.0,47,0.00,,---,0.00,VWS V14.01,2013-11-23 10:19:00,
2013-11-23 03:20:00,14.5,-2.0,30.32,SSW,196,0.0,0.0,47,0.00,,---,0.00,VWS V14.01,2013-11-23 10:20:00,
2013-11-23 03:23:00,14.4,-2.2,30.32,SSW,196,0.0,0.0,47,0.00,,---,0.00,VWS V14.01,2013-11-23 10:23:00,
2013-11-23 03:24:00,14.4,-2.2,30.32,SSW,196,0.0,0.0,47,0.00,,---,0.00,VWS V14.01,2013-11-23 10:24:00,
2013-11-23 03:25:00,14.4,-2.2,30.32,SSW,196,0.0,0.0,47,0.00,,---,0.00,VWS V14.01,2013-11-23 10:25:00,
2013-11-23 03:28:00,14.2,-1.9,30.32,SSW,196,0.0,2.2,48,0.00,,---,0.00,VWS V14.01,2013-11-23 10:28:00,
2013-11-23 03:29:00,14.2,-1.9,30.32,SSW,196,0.0,0.0,48,0.00,,---,0.00,VWS V14.01,2013-11-23 10:29:00,
2013-11-23 03:30:00,14.2,-1.9,30.32,SSW,196,0.0,0.0,48,0.00,,---,0.00,VWS V14.01,2013-11-23 10:30:00,
2013-11-23 03:31:00,14.2,-1.9,30.32,SSW,196,0.0,0.0,48,0.00,,---,0.00,VWS V14.01,2013-11-23 10:31:00,
2013-11-23 03:34:00,14.2,-1.9,30.29,SSW,196,0.0,0.0,48,0.00,,---,0.00,VWS V14.01,2013-11-23 10:34:00,
2013-11-23 03:35:00,14.2,-1.9,30.29,SSW,196,0.0,0.0,48,0.00,,---,0.00,VWS V14.01,2013-11-23 10:35:00,
2013-11-23 03:36:00,14.2,-1.9,30.29,SSW,196,0.0,0.0,48,0.00,,---,0.00,VWS V14.01,2013-11-23 10:36:00,
2013-11-23 03:39:00,14.0,-2.1,30.29,SSW,196,0.0,0.0,48,0.00,,---,0.00,VWS V14.01,2013-11-23 10:39:00,
2013-11-23 03:40:00,13.8,-2.2,30.29,SSW,196,0.0,0.0,48,0.00,,---,0.00,VWS V14.01,2013-11-23 10:40:00,
2013-11-23 03:41:00,13.8,-2.2,30.29,SSW,196,0.0,0.0,48,0.00,,---,0.00,VWS V14.01,2013-11-23 10:41:00,
2013-11-23 03:44:00,13.8,-2.2,30.29,SSW,196,0.0,0.0,48,0.00,,---,0.00,VWS V14.01,2013-11-23 10:44:00,
2013-11-23 03:45:00,13.8,-2.2,30.29,SSW,196,0.0,0.0,48,0.00,,---,0.00,VWS V14.01,2013-11-23 10:45:00,
2013-11-23 03:46:00,14.0,-1.6,30.29,SSW,196,0.0,0.0,49,0.00,,---,0.00,VWS V14.01,2013-11-23 10:46:00,
2013-11-23 03:49:00,14.0,-1.6,30.32,SSW,196,0.0,0.0,49,0.00,,---,0.00,VWS V14.01,2013-11-23 10:49:00,
2013-11-23 03:50:00,14.0,-1.6,30.32,SSW,196,0.0,0.0,49,0.00,,---,0.00,VWS V14.01,2013-11-23 10:50:00,
2013-11-23 03:51:00,14.2,-1.9,30.32,SSW,196,2.2,2.7,48,0.00,,---,0.00,VWS V14.01,2013-11-23 10:51:00,
2013-11-23 03:52:00,14.2,-1.5,30.32,SSW,196,2.7,2.7,49,0.00,,---,0.00,VWS V14.01,2013-11-23 10:52:00,
2013-11-23 03:54:00,14.2,-1.5,30.32,SSW,196,2.7,2.7,49,0.00,,---,0.00,VWS V14.01,2013-11-23 10:54:00,
2013-11-23 03:55:00,14.2,-1.5,30.32,SSW,196,2.2,2.7,49,0.00,,---,0.00,VWS V14.01,2013-11-23 10:55:00,
2013-11-23 03:56:00,14.2,-1.5,30.32,SSW,196,2.7,2.7,49,0.00,,---,0.00,VWS V14.01,2013-11-23 10:56:00,
2013-11-23 03:57:00,14.2,-1.5,30.32,SSW,196,3.1,3.6,49,0.00,,---,0.00,VWS V14.01,2013-11-23 10:57:00,
2013-11-23 03:59:00,14.4,-1.3,30.32,SSW,196,2.7,2.7,49,0.00,,---,0.00,VWS V14.01,2013-11-23 10:59:00,
2013-11-23 04:00:00,14.4,-1.3,30.32,SSW,196,2.7,2.7,49,0.00,,---,0.00,VWS V14.01,2013-11-23 11:00:00,
2013-11-23 04:01:00,14.4,-1.3,30.32,SSW,196,0.0,2.2,49,0.00,,---,0.00,VWS V14.01,2013-11-23 11:01:00,
2013-11-23 04:02:00,14.4,-1.3,30.29,SSW,196,2.2,2.2,49,0.00,,---,0.00,VWS V14.01,2013-11-23 11:02:00,
2013-11-23 04:04:00,14.5,-1.6,30.29,SSW,196,2.7,2.7,48,0.00,,---,0.00,VWS V14.01,2013-11-23 11:04:00,
2013-11-23 04:05:00,14.5,-1.6,30.29,SSW,196,2.7,2.7,48,0.00,,---,0.00,VWS V14.01,2013-11-23 11:05:00,
2013-11-23 04:06:00,14.5,-1.6,30.29,SSW,196,2.7,2.7,48,0.00,,---,0.00,VWS V14.01,2013-11-23 11:06:00,
2013-11-23 04:07:00,14.5,-1.6,30.29,SSW,196,2.2,2.7,48,0.00,,---,0.00,VWS V14.01,2013-11-23 11:07:00,
2013-11-23 04:09:00,14.7,-1.4,30.29,SSW,196,2.2,2.2,48,0.00,,---,0.00,VWS V14.01,2013-11-23 11:09:00,
2013-11-23 04:10:00,14.7,-1.4,30.29,SSW,196,2.2,2.2,48,0.00,,---,0.00,VWS V14.01,2013-11-23 11:10:00,
2013-11-23 04:11:00,14.5,-1.6,30.29,SSW,196,2.2,2.2,48,0.00,,---,0.00,VWS V14.01,2013-11-23 11:11:00,
2013-11-23 04:12:00,14.5,-1.6,30.29,SSW,196,0.0,2.2,48,0.00,,---,0.00,VWS V14.01,2013-11-23 11:12:00,
2013-11-23 04:14:00,14.4,-1.7,30.29,SSW,196,2.7,2.7,48,0.00,,---,0.00,VWS V14.01,2013-11-23 11:14:00,
2013-11-23 04:15:00,14.4,-1.7,30.29,SSW,196,2.7,2.7,48,0.00,,---,0.00,VWS V14.01,2013-11-23 11:15:00,
2013-11-23 04:16:00,14.4,-1.7,30.29,SSW,196,2.2,2.7,48,0.00,,---,0.00,VWS V14.01,2013-11-23 11:16:00,
2013-11-23 04:17:00,14.4,-1.7,30.29,SSW,196,2.7,3.1,48,0.00,,---,0.00,VWS V14.01,2013-11-23 11:17:00,
2013-11-23 04:18:00,14.4,-1.7,30.29,SSW,196,2.2,2.7,48,0.00,,---,0.00,VWS V14.01,2013-11-23 11:18:00,
2013-11-23 04:19:00,14.4,-1.7,30.29,SSW,196,2.2,2.2,48,0.00,,---,0.00,VWS V14.01,2013-11-23 11:19:00,
2013-11-23 04:20:00,14.4,-1.7,30.29,SSW,196,0.0,0.0,48,0.00,,---,0.00,VWS V14.01,2013-11-23 11:20:00,
2013-11-23 04:21:00,14.4,-1.7,30.29,SSW,196,0.0,0.0,48,0.00,,---,0.00,VWS V14.01,2013-11-23 11:21:00,
2013-11-23 04:22:00,14.2,-1.9,30.29,SSW,196,0.0,0.0,48,0.00,,---,0.00,VWS V14.01,2013-11-23 11:22:00,
2013-11-23 04:23:00,14.2,-1.9,30.29,SSW,196,0.0,0.0,48,0.00,,---,0.00,VWS V14.01,2013-11-23 11:23:00,
2013-11-23 04:24:00,14.2,-1.9,30.29,SSW,196,0.0,0.0,48,0.00,,---,0.00,VWS V14.01,2013-11-23 11:24:00,
2013-11-23 04:25:00,14.0,-2.1,30.29,SSW,196,0.0,0.0,48,0.00,,---,0.00,VWS V14.01,2013-11-23 11:25:00,
2013-11-23 04:26:00,14.0,-2.1,30.29,SSW,196,0.0,0.0,48,0.00,,---,0.00,VWS V14.01,2013-11-23 11:26:00,
2013-11-23 04:27:00,13.8,-2.2,30.29,SSW,196,3.1,3.1,48,0.00,,---,0.00,VWS V14.01,2013-11-23 11:27:00,
2013-11-23 04:28:00,13.8,-2.2,30.29,SSW,196,3.1,3.6,48,0.00,,---,0.00,VWS V14.01,2013-11-23 11:28:00,
2013-11-23 04:30:00,13.8,-2.2,30.29,SSW,196,3.1,3.1,48,0.00,,---,0.00,VWS V14.01,2013-11-23 11:30:00,
2013-11-23 04:31:00,13.8,-2.2,30.29,SSW,196,3.1,3.1,48,0.00,,---,0.00,VWS V14.01,2013-11-23 11:31:00,
2013-11-23 04:32:00,14.0,-1.2,30.29,SSW,196,4.0,4.0,50,0.00,,---,0.00,VWS V14.01,2013-11-23 11:32:00,
2013-11-23 04:33:00,14.0,-1.2,30.29,SSW,196,2.7,3.1,50,0.00,,---,0.00,VWS V14.01,2013-11-23 11:33:00,
2013-11-23 04:35:00,14.2,-1.5,30.29,SSW,196,0.0,0.0,49,0.00,,---,0.00,VWS V14.01,2013-11-23 11:35:00,
2013-11-23 04:36:00,14.2,-1.5,30.29,SSW,196,0.0,0.0,49,0.00,,---,0.00,VWS V14.01,2013-11-23 11:36:00,
2013-11-23 04:38:00,14.2,-1.5,30.29,SSW,196,0.0,0.0,49,0.00,,---,0.00,VWS V14.01,2013-11-23 11:38:00,
2013-11-23 04:40:00,14.0,-1.6,30.29,SSW,196,0.0,0.0,49,0.00,,---,0.00,VWS V14.01,2013-11-23 11:40:00,
2013-11-23 04:41:00,13.8,-1.8,30.29,SSW,196,0.0,0.0,49,0.00,,---,0.00,VWS V14.01,2013-11-23 11:41:00,
2013-11-23 04:43:00,13.8,-1.8,30.29,SSW,196,0.0,0.0,49,0.00,,---,0.00,VWS V14.01,2013-11-23 11:43:00,
2013-11-23 04:44:00,13.6,-2.0,30.29,SSW,196,0.0,0.0,49,0.00,,---,0.00,VWS V14.01,2013-11-23 11:44:00,
2013-11-23 04:45:00,13.6,-2.0,30.29,SSW,196,0.0,0.0,49,0.00,,---,0.00,VWS V14.01,2013-11-23 11:45:00,
2013-11-23 04:46:00,13.5,-2.1,30.29,SSW,196,0.0,0.0,49,0.00,,---,0.00,VWS V14.01,2013-11-23 11:46:00,
2013-11-23 04:47:00,13.5,-2.1,30.29,SSW,196,0.0,0.0,49,0.00,,---,0.00,VWS V14.01,2013-11-23 11:47:00,
2013-11-23 04:48:00,13.5,-2.1,30.29,SSW,196,0.0,0.0,49,0.00,,---,0.00,VWS V14.01,2013-11-23 11:48:00,
2013-11-23 04:49:00,13.5,-2.1,30.29,SSW,196,2.7,3.1,49,0.00,,---,0.00,VWS V14.01,2013-11-23 11:49:00,
2013-11-23 04:50:00,13.5,-2.1,30.29,SSW,195,3.6,4.0,49,0.00,,---,0.00,VWS V14.01,2013-11-23 11:50:00,
2013-11-23 04:51:00,13.5,-2.1,30.29,South,189,3.1,3.1,49,0.00,,---,0.00,VWS V14.01,2013-11-23 11:51:00,
2013-11-23 04:52:00,13.5,-2.1,30.29,South,189,2.7,3.1,49,0.00,,---,0.00,VWS V14.01,2013-11-23 11:52:00,
2013-11-23 04:53:00,13.6,-2.0,30.29,South,189,2.7,2.7,49,0.00,,---,0.00,VWS V14.01,2013-11-23 11:53:00,
2013-11-23 04:54:00,13.6,-2.0,30.29,South,189,2.7,2.7,49,0.00,,---,0.00,VWS V14.01,2013-11-23 11:54:00,
2013-11-23 04:55:00,13.8,-1.8,30.29,SSW,192,4.0,4.0,49,0.00,,---,0.00,VWS V14.01,2013-11-23 11:55:00,
2013-11-23 04:56:00,13.8,-1.8,30.29,SSW,192,2.2,2.2,49,0.00,,---,0.00,VWS V14.01,2013-11-23 11:56:00,
2013-11-23 04:57:00,13.8,-1.8,30.29,SSW,192,0.0,0.0,49,0.00,,---,0.00,VWS V14.01,2013-11-23 11:57:00,
2013-11-23 04:58:00,13.8,-1.8,30.29,SSW,192,0.0,0.0,49,0.00,,---,0.00,VWS V14.01,2013-11-23 11:58:00,
2013-11-23 04:59:00,13.6,-2.0,30.29,SSW,193,0.0,2.7,49,0.00,,---,0.00,VWS V14.01,2013-11-23 11:59:00,
2013-11-23 05:00:00,13.6,-2.0,30.29,SSW,193,0.0,2.2,49,0.00,,---,0.00,VWS V14.01,2013-11-23 12:00:00,
2013-11-23 05:02:00,13.6,-2.0,30.29,SSW,193,2.7,2.7,49,0.00,,---,0.00,VWS V14.01,2013-11-23 12:02:00,
2013-11-23 05:03:00,13.6,-2.0,30.29,SSW,194,0.0,0.0,49,0.00,,---,0.00,VWS V14.01,2013-11-23 12:03:00,
2013-11-23 05:04:00,13.6,-2.0,30.29,SSW,194,0.0,0.0,49,0.00,,---,0.00,VWS V14.01,2013-11-23 12:04:00,
2013-11-23 05:05:00,13.6,-2.0,30.29,SSW,194,0.0,0.0,49,0.00,,---,0.00,VWS V14.01,2013-11-23 12:05:00,
2013-11-23 05:07:00,13.6,-2.0,30.29,SSW,194,0.0,0.0,49,0.00,,---,0.00,VWS V14.01,2013-11-23 12:07:00,
2013-11-23 05:08:00,13.6,-2.0,30.29,SSW,194,0.0,0.0,49,0.00,,---,0.00,VWS V14.01,2013-11-23 12:08:00,
2013-11-23 05:09:00,13.6,-2.0,30.29,SSW,194,0.0,0.0,49,0.00,,---,0.00,VWS V14.01,2013-11-23 12:09:00,
2013-11-23 05:10:00,13.6,-2.0,30.29,SSW,194,0.0,0.0,49,0.00,,---,0.00,VWS V14.01,2013-11-23 12:10:00,
2013-11-23 05:11:00,13.6,-2.0,30.29,SSW,194,0.0,0.0,49,0.00,,---,0.00,VWS V14.01,2013-11-23 12:11:00,
2013-11-23 05:12:00,13.6,-2.0,30.29,SSW,194,0.0,0.0,49,0.00,,---,0.00,VWS V14.01,2013-11-23 12:12:00,
2013-11-23 05:13:00,13.6,-2.0,30.29,SSW,194,0.0,0.0,49,0.00,,---,0.00,VWS V14.01,2013-11-23 12:13:00,
2013-11-23 05:15:00,13.6,-2.0,30.29,SSW,194,0.0,0.0,49,0.00,,---,0.00,VWS V14.01,2013-11-23 12:15:00,
2013-11-23 05:16:00,13.6,-2.0,30.29,SSW,194,0.0,0.0,49,0.00,,---,0.00,VWS V14.01,2013-11-23 12:16:00,
2013-11-23 05:17:00,13.6,-2.0,30.29,SSW,194,0.0,0.0,49,0.00,,---,0.00,VWS V14.01,2013-11-23 12:17:00,
2013-11-23 05:18:00,13.5,-2.1,30.29,SSW,194,0.0,0.0,49,0.00,,---,0.00,VWS V14.01,2013-11-23 12:18:00,
2013-11-23 05:20:00,13.5,-2.1,30.29,SSW,194,0.0,0.0,49,0.00,,---,0.00,VWS V14.01,2013-11-23 12:20:00,
2013-11-23 05:21:00,13.5,-2.1,30.29,SSW,194,0.0,0.0,49,0.00,,---,0.00,VWS V14.01,2013-11-23 12:21:00,
2013-11-23 05:22:00,13.5,-2.1,30.29,SSW,194,0.0,0.0,49,0.00,,---,0.00,VWS V14.01,2013-11-23 12:22:00,
2013-11-23 05:23:00,13.3,-2.3,30.29,SSW,194,0.0,0.0,49,0.00,,---,0.00,VWS V14.01,2013-11-23 12:23:00,
2013-11-23 05:25:00,13.3,-2.3,30.29,SSW,194,0.0,0.0,49,0.00,,---,0.00,VWS V14.01,2013-11-23 12:25:00,
2013-11-23 05:26:00,13.3,-2.3,30.29,SSW,194,0.0,0.0,49,0.00,,---,0.00,VWS V14.01,2013-11-23 12:26:00,
2013-11-23 05:27:00,13.3,-2.3,30.29,SSW,194,0.0,0.0,49,0.00,,---,0.00,VWS V14.01,2013-11-23 12:27:00,
2013-11-23 05:28:00,13.3,-2.3,30.29,SSW,194,0.0,0.0,49,0.00,,---,0.00,VWS V14.01,2013-11-23 12:28:00,
2013-11-23 05:30:00,13.3,-2.3,30.29,SSW,194,0.0,0.0,49,0.00,,---,0.00,VWS V14.01,2013-11-23 12:30:00,
2013-11-23 05:31:00,13.5,-2.1,30.29,SSW,194,0.0,0.0,49,0.00,,---,0.00,VWS V14.01,2013-11-23 12:31:00,
2013-11-23 05:32:00,13.5,-2.1,30.29,SSW,194,0.0,0.0,49,0.00,,---,0.00,VWS V14.01,2013-11-23 12:32:00,
2013-11-23 05:33:00,13.5,-2.1,30.29,SSW,194,0.0,0.0,49,0.00,,---,0.00,VWS V14.01,2013-11-23 12:33:00,
2013-11-23 05:35:00,13.6,-2.0,30.29,SSW,194,0.0,0.0,49,0.00,,---,0.00,VWS V14.01,2013-11-23 12:35:00,
2013-11-23 05:36:00,13.6,-2.0,30.29,SSW,194,3.6,3.6,49,0.00,,---,0.00,VWS V14.01,2013-11-23 12:36:00,
2013-11-23 05:37:00,13.6,-2.0,30.29,SSW,194,2.2,2.2,49,0.00,,---,0.00,VWS V14.01,2013-11-23 12:37:00,
2013-11-23 05:38:00,13.6,-2.0,30.29,SSW,194,0.0,2.7,49,0.00,,---,0.00,VWS V14.01,2013-11-23 12:38:00,
2013-11-23 05:39:00,13.8,-1.8,30.29,SSW,194,0.0,0.0,49,0.00,,---,0.00,VWS V14.01,2013-11-23 12:39:00,
2013-11-23 05:40:00,13.8,-1.8,30.29,SSW,193,2.2,3.1,49,0.00,,---,0.00,VWS V14.01,2013-11-23 12:40:00,
2013-11-23 05:41:00,13.8,-1.8,30.29,SSW,193,2.2,2.7,49,0.00,,---,0.00,VWS V14.01,2013-11-23 12:41:00,
2013-11-23 05:42:00,13.8,-1.8,30.29,SSW,193,2.2,2.2,49,0.00,,---,0.00,VWS V14.01,2013-11-23 12:42:00,
2013-11-23 05:43:00,13.8,-1.8,30.29,SSW,193,2.2,2.2,49,0.00,,---,0.00,VWS V14.01,2013-11-23 12:43:00,
2013-11-23 05:44:00,13.8,-1.8,30.29,SSW,193,0.0,0.0,49,0.00,,---,0.00,VWS V14.01,2013-11-23 12:44:00,
2013-11-23 05:45:00,13.8,-1.8,30.29,SSW,193,0.0,0.0,49,0.00,,---,0.00,VWS V14.01,2013-11-23 12:45:00,
2013-11-23 05:46:00,13.6,-2.0,30.29,SSW,193,0.0,0.0,49,0.00,,---,0.00,VWS V14.01,2013-11-23 12:46:00,
2013-11-23 05:47:00,13.6,-2.0,30.29,SSW,193,0.0,0.0,49,0.00,,---,0.00,VWS V14.01,2013-11-23 12:47:00,
2013-11-23 05:48:00,13.6,-2.0,30.29,SSW,193,0.0,0.0,49,0.00,,---,0.00,VWS V14.01,2013-11-23 12:48:00,
2013-11-23 05:49:00,13.6,-2.0,30.29,SSW,193,0.0,0.0,49,0.00,,---,0.00,VWS V14.01,2013-11-23 12:49:00,
2013-11-23 05:50:00,13.8,-1.8,30.29,SSW,193,0.0,0.0,49,0.00,,---,0.00,VWS V14.01,2013-11-23 12:50:00,
2013-11-23 05:51:00,13.8,-1.8,30.29,SSW,193,0.0,0.0,49,0.00,,---,0.00,VWS V14.01,2013-11-23 12:51:00,
2013-11-23 05:52:00,13.8,-1.8,30.29,SSW,193,0.0,0.0,49,0.00,,---,0.00,VWS V14.01,2013-11-23 12:52:00,
2013-11-23 05:54:00,13.8,-1.8,30.29,SSW,193,0.0,0.0,49,0.00,,---,0.00,VWS V14.01,2013-11-23 12:54:00,
2013-11-23 05:56:00,13.6,-2.0,30.29,SSW,193,0.0,0.0,49,0.00,,---,0.00,VWS V14.01,2013-11-23 12:56:00,
2013-11-23 05:58:00,13.5,-2.1,30.29,SSW,193,0.0,0.0,49,0.00,,---,0.00,VWS V14.01,2013-11-23 12:58:00,
2013-11-23 05:59:00,13.5,-2.1,30.29,SSW,194,3.1,4.0,49,0.00,,---,0.00,VWS V14.01,2013-11-23 12:59:00,
2013-11-23 06:00:00,12.7,-2.8,30.30,SSW,197,0.0,0.0,49,0.00,,,0.00,VWS V15.00,2013-11-23 13:00:00,
2013-11-23 06:01:00,13.6,-2.0,30.29,SSW,194,3.1,3.1,49,0.00,,---,0.00,VWS V14.01,2013-11-23 13:01:00,
2013-11-23 06:03:00,13.6,-2.0,30.29,SSW,195,2.7,3.1,49,0.00,,---,0.00,VWS V14.01,2013-11-23 13:03:00,
2013-11-23 06:04:00,13.8,-1.8,30.29,SSW,195,3.1,3.1,49,0.00,,---,0.00,VWS V14.01,2013-11-23 13:04:00,
2013-11-23 06:05:00,13.8,-1.8,30.29,SSW,195,2.7,3.6,49,0.00,,---,0.00,VWS V14.01,2013-11-23 13:05:00,
2013-11-23 06:06:00,13.8,-1.8,30.29,SSW,196,3.6,3.6,49,0.00,,---,0.00,VWS V14.01,2013-11-23 13:06:00,
2013-11-23 06:07:00,14.0,-0.8,30.29,SSW,194,4.0,4.9,51,0.00,,---,0.00,VWS V14.01,2013-11-23 13:07:00,
2013-11-23 06:08:00,14.0,-0.8,30.29,SSW,196,4.0,4.5,51,0.00,,---,0.00,VWS V14.01,2013-11-23 13:08:00,
2013-11-23 06:09:00,14.0,-0.8,30.29,SSW,196,3.1,3.6,51,0.00,,---,0.00,VWS V14.01,2013-11-23 13:09:00,
2013-11-23 06:11:00,14.0,-1.2,30.29,SSW,197,3.6,4.9,50,0.00,,---,0.00,VWS V14.01,2013-11-23 13:11:00,
2013-11-23 06:12:00,14.0,-1.2,30.29,SSW,197,3.1,3.1,50,0.00,,---,0.00,VWS V14.01,2013-11-23 13:12:00,
2013-11-23 06:13:00,14.2,-1.0,30.29,SSW,197,2.2,3.6,50,0.00,,---,0.00,VWS V14.01,2013-11-23 13:13:00,
2013-11-23 06:14:00,14.2,-1.0,30.29,SSW,197,2.7,2.7,50,0.00,,---,0.00,VWS V14.01,2013-11-23 13:14:00,
2013-11-23 06:15:00,12.0,-3.5,30.30,SSW,201,2.2,2.2,49,0.00,,,0.00,VWS V15.00,2013-11-23 13:15:00,
2013-11-23 06:16:00,14.2,-1.5,30.29,SSW,197,0.0,2.2,49,0.00,,---,0.00,VWS V14.01,2013-11-23 13:16:00,
2013-11-23 06:17:00,14.2,-1.5,30.29,SSW,197,0.0,0.0,49,0.00,,---,0.00,VWS V14.01,2013-11-23 13:17:00,
2013-11-23 06:18:00,14.2,-1.5,30.29,SSW,197,0.0,0.0,49,0.00,,---,0.00,VWS V14.01,2013-11-23 13:18:00,
2013-11-23 06:19:00,14.2,-1.5,30.29,SSW,197,0.0,0.0,49,0.00,,---,0.00,VWS V14.01,2013-11-23 13:19:00,
2013-11-23 06:21:00,14.2,-1.5,30.29,SSW,197,0.0,0.0,49,0.00,,---,0.00,VWS V14.01,2013-11-23 13:21:00,
2013-11-23 06:22:00,14.2,-1.5,30.29,SSW,197,0.0,0.0,49,0.00,,---,0.00,VWS V14.01,2013-11-23 13:22:00,
2013-11-23 06:23:00,14.2,-1.5,30.29,SSW,197,2.7,2.7,49,0.00,,---,0.00,VWS V14.01,2013-11-23 13:23:00,
2013-11-23 06:24:00,14.4,-1.3,30.29,SSW,197,2.2,2.7,49,0.00,,---,0.00,VWS V14.01,2013-11-23 13:24:00,
2013-11-23 06:27:00,14.4,-1.3,30.29,SSW,197,0.0,0.0,49,0.00,,---,0.00,VWS V14.01,2013-11-23 13:27:00,
2013-11-23 06:28:00,14.4,-1.3,30.29,SSW,197,0.0,0.0,49,0.00,,---,0.00,VWS V14.01,2013-11-23 13:28:00,
2013-11-23 06:29:00,14.2,-1.5,30.29,SSW,197,0.0,0.0,49,0.00,,---,0.00,VWS V14.01,2013-11-23 13:29:00,
2013-11-23 06:30:00,12.9,-2.6,30.30,SSW,199,0.0,0.0,49,0.00,,,0.00,VWS V15.00,2013-11-23 13:30:00,
2013-11-23 06:32:00,14.0,-1.6,30.29,SSW,197,0.0,0.0,49,0.00,,---,0.00,VWS V14.01,2013-11-23 13:32:00,
2013-11-23 06:33:00,13.8,-1.8,30.29,SSW,197,0.0,0.0,49,0.00,,---,0.00,VWS V14.01,2013-11-23 13:33:00,
2013-11-23 06:34:00,13.8,-1.8,30.29,SSW,197,0.0,0.0,49,0.00,,---,0.00,VWS V14.01,2013-11-23 13:34:00,
2013-11-23 06:37:00,13.6,-2.0,30.29,SSW,197,0.0,0.0,49,0.00,,---,0.00,VWS V14.01,2013-11-23 13:37:00,
2013-11-23 06:38:00,13.6,-2.0,30.29,SSW,197,0.0,0.0,49,0.00,,---,0.00,VWS V14.01,2013-11-23 13:38:00,
2013-11-23 06:39:00,13.5,-2.1,30.29,SSW,197,0.0,0.0,49,0.00,,---,0.00,VWS V14.01,2013-11-23 13:39:00,
2013-11-23 06:40:00,13.3,-2.3,30.29,SSW,197,0.0,0.0,49,0.00,,---,0.00,VWS V14.01,2013-11-23 13:40:00,
2013-11-23 06:42:00,13.1,-2.5,30.29,SSW,197,0.0,0.0,49,0.00,,---,0.00,VWS V14.01,2013-11-23 13:42:00,
2013-11-23 06:43:00,13.1,-2.5,30.29,SSW,197,0.0,0.0,49,0.00,,---,0.00,VWS V14.01,2013-11-23 13:43:00,
2013-11-23 06:44:00,12.9,-2.6,30.29,SSW,197,2.2,4.0,49,0.00,,---,0.00,VWS V14.01,2013-11-23 13:44:00,
2013-11-23 06:45:00,13.1,-2.5,30.29,SSW,197,3.1,3.6,49,0.00,,---,0.00,VWS V14.01,2013-11-23 13:45:00,
2013-11-23 06:47:00,13.3,-2.3,30.29,SSW,197,3.6,3.6,49,0.00,,---,0.00,VWS V14.01,2013-11-23 13:47:00,
2013-11-23 06:48:00,13.3,-2.3,30.29,SSW,196,4.0,5.8,49,0.00,,---,0.00,VWS V14.01,2013-11-23 13:48:00,
2013-11-23 06:49:00,13.3,-2.3,30.29,SSW,197,3.1,3.1,49,0.00,,---,0.00,VWS V14.01,2013-11-23 13:49:00,
2013-11-23 06:50:00,13.5,-2.1,30.29,SSW,197,2.7,2.7,49,0.00,,---,0.00,VWS V14.01,2013-11-23 13:50:00,
2013-11-23 06:52:00,13.5,-2.1,30.29,SSW,197,0.0,3.1,49,0.00,,---,0.00,VWS V14.01,2013-11-23 13:52:00,
2013-11-23 06:53:00,13.3,-2.3,30.29,SSW,197,0.0,2.2,49,0.00,,---,0.00,VWS V14.01,2013-11-23 13:53:00,
2013-11-23 06:54:00,13.3,-2.3,30.29,SSW,197,0.0,0.0,49,0.00,,---,0.00,VWS V14.01,2013-11-23 13:54:00,
2013-11-23 06:55:00,13.3,-2.3,30.29,SSW,197,0.0,0.0,49,0.00,,---,0.00,VWS V14.01,2013-11-23 13:55:00,
2013-11-23 06:57:00,12.9,-2.6,30.29,SSW,197,0.0,0.0,49,0.00,,---,0.00,VWS V14.01,2013-11-23 13:57:00,
2013-11-23 06:58:00,12.9,-2.6,30.29,SSW,197,0.0,0.0,49,0.00,,---,0.00,VWS V14.01,2013-11-23 13:58:00,
2013-11-23 06:59:00,12.9,-2.6,30.29,SSW,197,0.0,0.0,49,0.00,,---,0.00,VWS V14.01,2013-11-23 13:59:00,
2013-11-23 07:00:00,12.7,-2.8,30.29,SSW,197,0.0,0.0,49,0.00,,---,0.00,VWS V14.01,2013-11-23 14:00:00,
2013-11-23 07:02:00,12.6,-3.0,30.29,SSW,197,0.0,0.0,49,0.00,,---,0.00,VWS V14.01,2013-11-23 14:02:00,
2013-11-23 07:03:00,12.6,-3.0,30.29,SSW,197,0.0,0.0,49,0.00,,---,0.00,VWS V14.01,2013-11-23 14:03:00,
2013-11-23 07:04:00,12.6,-3.0,30.29,SSW,197,0.0,0.0,49,0.00,,---,0.00,VWS V14.01,2013-11-23 14:04:00,
2013-11-23 07:05:00,12.4,-3.1,30.29,SSW,197,0.0,0.0,49,0.00,,---,0.00,VWS V14.01,2013-11-23 14:05:00,
2013-11-23 07:07:00,12.2,-3.3,30.29,SSW,197,0.0,0.0,49,0.00,,---,0.00,VWS V14.01,2013-11-23 14:07:00,
2013-11-23 07:09:00,12.2,-3.3,30.29,SSW,197,0.0,0.0,49,0.00,,---,0.00,VWS V14.01,2013-11-23 14:09:00,
2013-11-23 07:10:00,12.2,-3.3,30.29,SSW,197,0.0,0.0,49,0.00,,---,0.00,VWS V14.01,2013-11-23 14:10:00,
2013-11-23 07:12:00,12.0,-3.5,30.29,SSW,197,0.0,0.0,49,0.00,,---,0.00,VWS V14.01,2013-11-23 14:12:00,
2013-11-23 07:14:00,12.0,-3.5,30.29,SSW,197,0.0,0.0,49,0.00,,---,0.00,VWS V14.01,2013-11-23 14:14:00,
2013-11-23 07:15:00,12.0,-3.5,30.29,SSW,201,2.2,2.2,49,0.00,,---,0.00,VWS V14.01,2013-11-23 14:15:00,
2013-11-23 07:18:00,12.2,-3.3,30.29,SSW,200,0.0,2.2,49,0.00,,---,0.00,VWS V14.01,2013-11-23 14:18:00,
2013-11-23 07:19:00,12.6,-3.0,30.29,SSW,200,2.2,2.2,49,0.00,,---,0.00,VWS V14.01,2013-11-23 14:19:00,
2013-11-23 07:20:00,12.6,-3.0,30.29,SSW,200,2.7,2.7,49,0.00,,---,0.00,VWS V14.01,2013-11-23 14:20:00,
2013-11-23 07:21:00,12.6,-3.0,30.29,SSW,200,0.0,0.0,49,0.00,,---,0.00,VWS V14.01,2013-11-23 14:21:00,
2013-11-23 07:23:00,12.7,-2.8,30.29,SSW,200,0.0,0.0,49,0.00,,---,0.00,VWS V14.01,2013-11-23 14:23:00,
2013-11-23 07:24:00,12.7,-2.8,30.29,SSW,200,2.7,2.7,49,0.00,,---,0.00,VWS V14.01,2013-11-23 14:24:00,
2013-11-23 07:26:00,12.7,-2.8,30.29,SSW,200,2.2,2.2,49,0.00,,---,0.00,VWS V14.01,2013-11-23 14:26:00,
2013-11-23 07:28:00,12.7,-2.8,30.29,SSW,200,3.1,3.1,49,0.00,,---,0.00,VWS V14.01,2013-11-23 14:28:00,
2013-11-23 07:29:00,12.9,-2.6,30.29,SSW,199,2.7,2.7,49,0.00,,---,0.00,VWS V14.01,2013-11-23 14:29:00,
2013-11-23 07:30:00,12.9,-2.6,30.26,SSW,192,3.6,3.6,49,0.00,,,0.00,VWS V15.00,2013-11-23 14:30:00,
2013-11-23 07:31:00,12.9,-2.6,30.29,SSW,199,0.0,0.0,49,0.00,,---,0.00,VWS V14.01,2013-11-23 14:31:00,
2013-11-23 07:33:00,12.9,-2.6,30.29,SSW,199,0.0,0.0,49,0.00,,---,0.00,VWS V14.01,2013-11-23 14:33:00,
2013-11-23 07:34:00,12.9,-2.6,30.29,SSW,199,0.0,0.0,49,0.00,,---,0.00,VWS V14.01,2013-11-23 14:34:00,
2013-11-23 07:36:00,12.9,-2.6,30.29,SSW,199,0.0,0.0,49,0.00,,---,0.00,VWS V14.01,2013-11-23 14:36:00,
2013-11-23 07:37:00,12.9,-2.6,30.29,SSW,199,0.0,0.0,49,0.00,,---,0.00,VWS V14.01,2013-11-23 14:37:00,
2013-11-23 07:38:00,13.1,-2.5,30.29,SSW,199,0.0,0.0,49,0.00,,---,0.00,VWS V14.01,2013-11-23 14:38:00,
2013-11-23 07:40:00,13.1,-2.5,30.29,SSW,199,0.0,0.0,49,0.00,,---,0.00,VWS V14.01,2013-11-23 14:40:00,
2013-11-23 07:41:00,13.1,-2.5,30.29,SSW,199,0.0,0.0,49,0.00,,---,0.00,VWS V14.01,2013-11-23 14:41:00,
2013-11-23 07:42:00,13.1,-2.5,30.29,SSW,199,0.0,0.0,49,0.00,,---,0.00,VWS V14.01,2013-11-23 14:42:00,
2013-11-23 07:43:00,12.9,-2.6,30.29,SSW,199,0.0,0.0,49,0.00,,---,0.00,VWS V14.01,2013-11-23 14:43:00,
2013-11-23 07:45:00,12.9,-2.6,30.29,SSW,199,0.0,0.0,49,0.00,,---,0.00,VWS V14.01,2013-11-23 14:45:00,
2013-11-23 07:46:00,12.9,-2.6,30.29,SSW,199,0.0,0.0,49,0.00,,---,0.00,VWS V14.01,2013-11-23 14:46:00,
2013-11-23 07:47:00,12.7,-2.8,30.29,SSW,199,0.0,0.0,49,0.00,,---,0.00,VWS V14.01,2013-11-23 14:47:00,
2013-11-23 07:48:00,12.7,-2.8,30.29,SSW,199,0.0,0.0,49,0.00,,---,0.00,VWS V14.01,2013-11-23 14:48:00,
2013-11-23 07:50:00,12.6,-3.0,30.29,SSW,199,0.0,0.0,49,0.00,,---,0.00,VWS V14.01,2013-11-23 14:50:00,
2013-11-23 07:51:00,12.4,-3.1,30.29,SSW,199,0.0,0.0,49,0.00,,---,0.00,VWS V14.01,2013-11-23 14:51:00,
2013-11-23 07:52:00,12.4,-3.1,30.29,SSW,199,0.0,0.0,49,0.00,,---,0.00,VWS V14.01,2013-11-23 14:52:00,
2013-11-23 07:53:00,12.2,-3.3,30.29,SSW,199,0.0,0.0,49,0.00,,---,0.00,VWS V14.01,2013-11-23 14:53:00,
2013-11-23 07:55:00,12.0,-3.5,30.29,SSW,199,0.0,0.0,49,0.00,,---,0.00,VWS V14.01,2013-11-23 14:55:00,
2013-11-23 07:56:00,12.0,-3.5,30.29,SSW,199,0.0,0.0,49,0.00,,---,0.00,VWS V14.01,2013-11-23 14:56:00,
2013-11-23 07:57:00,12.0,-3.5,30.29,SSW,199,0.0,0.0,49,0.00,,---,0.00,VWS V14.01,2013-11-23 14:57:00,
2013-11-23 07:58:00,12.0,-3.5,30.29,SSW,199,0.0,0.0,49,0.00,,---,0.00,VWS V14.01,2013-11-23 14:58:00,
2013-11-23 08:00:00,16.0,0.6,30.26,South,185,0.0,0.0,50,0.00,,,0.00,VWS V15.00,2013-11-23 15:00:00,
2013-11-23 08:01:00,12.0,-3.5,30.29,SSW,199,0.0,0.0,49,0.00,,---,0.00,VWS V14.01,2013-11-23 15:01:00,
2013-11-23 08:02:00,12.0,-3.5,30.29,SSW,199,0.0,0.0,49,0.00,,---,0.00,VWS V14.01,2013-11-23 15:02:00,
2013-11-23 08:03:00,12.0,-3.5,30.29,SSW,198,0.0,0.0,49,0.00,,---,0.00,VWS V14.01,2013-11-23 15:03:00,
2013-11-23 08:06:00,12.2,-3.3,30.29,SSW,198,2.2,2.2,49,0.00,,---,0.00,VWS V14.01,2013-11-23 15:06:00,
2013-11-23 08:07:00,12.2,-3.3,30.29,SSW,198,3.1,3.1,49,0.00,,---,0.00,VWS V14.01,2013-11-23 15:07:00,
2013-11-23 08:09:00,12.2,-3.3,30.29,SSW,196,4.9,4.9,49,0.00,,---,0.00,VWS V14.01,2013-11-23 15:09:00,
2013-11-23 08:11:00,12.6,-3.0,30.29,SSW,194,3.6,4.0,49,0.00,,---,0.00,VWS V14.01,2013-11-23 15:11:00,
2013-11-23 08:12:00,12.6,-3.0,30.29,SSW,193,3.1,3.6,49,0.00,,---,0.00,VWS V14.01,2013-11-23 15:12:00,
2013-11-23 08:14:00,12.6,-3.0,30.29,SSW,192,3.1,4.5,49,0.00,,---,0.00,VWS V14.01,2013-11-23 15:14:00,
2013-11-23 08:15:00,16.0,-0.2,30.26,South,189,0.0,0.0,48,0.00,,,0.00,VWS V15.00,2013-11-23 15:15:00,
2013-11-23 08:16:00,12.9,-2.6,30.27,SSW,193,2.7,2.7,49,0.00,,---,0.00,VWS V14.01,2013-11-23 15:16:00,
2013-11-23 08:17:00,12.9,-2.6,30.27,SSW,193,3.1,3.1,49,0.00,,---,0.00,VWS V14.01,2013-11-23 15:17:00,
2013-11-23 08:18:00,12.9,-2.6,30.27,SSW,192,2.7,2.7,49,0.00,,---,0.00,VWS V14.01,2013-11-23 15:18:00,
2013-11-23 08:19:00,12.9,-2.6,30.27,SSW,192,0.0,2.7,49,0.00,,---,0.00,VWS V14.01,2013-11-23 15:19:00,
2013-11-23 08:21:00,12.7,-2.8,30.27,SSW,192,0.0,0.0,49,0.00,,---,0.00,VWS V14.01,2013-11-23 15:21:00,
2013-11-23 08:22:00,12.7,-2.8,30.27,SSW,192,0.0,0.0,49,0.00,,---,0.00,VWS V14.01,2013-11-23 15:22:00,
2013-11-23 08:23:00,12.7,-2.8,30.27,SSW,192,0.0,0.0,49,0.00,,---,0.00,VWS V14.01,2013-11-23 15:23:00,
2013-11-23 08:24:00,12.7,-2.8,30.27,SSW,192,0.0,0.0,49,0.00,,---,0.00,VWS V14.01,2013-11-23 15:24:00,
2013-11-23 08:26:00,12.7,-2.8,30.27,SSW,192,2.7,2.7,49,0.00,,---,0.00,VWS V14.01,2013-11-23 15:26:00,
2013-11-23 08:27:00,12.7,-2.8,30.27,SSW,192,2.7,2.7,49,0.00,,---,0.00,VWS V14.01,2013-11-23 15:27:00,
2013-11-23 08:28:00,12.7,-2.8,30.27,SSW,192,3.1,3.1,49,0.00,,---,0.00,VWS V14.01,2013-11-23 15:28:00,
2013-11-23 08:29:00,12.7,-2.8,30.27,SSW,192,2.7,3.1,49,0.00,,---,0.00,VWS V14.01,2013-11-23 15:29:00,
2013-11-23 08:30:00,16.9,0.6,30.26,South,189,0.0,0.0,48,0.00,,,0.00,VWS V15.00,2013-11-23 15:30:00,
2013-11-23 08:32:00,13.3,-2.3,30.27,SSW,192,2.7,3.1,49,0.00,,---,0.00,VWS V14.01,2013-11-23 15:32:00,
2013-11-23 08:33:00,13.3,-2.3,30.27,SSW,192,2.2,2.7,49,0.00,,---,0.00,VWS V14.01,2013-11-23 15:33:00,
2013-11-23 08:34:00,13.5,-2.1,30.27,SSW,193,2.7,3.6,49,0.00,,---,0.00,VWS V14.01,2013-11-23 15:34:00,
2013-11-23 08:37:00,13.8,-1.8,30.27,SSW,193,2.7,2.7,49,0.00,,---,0.00,VWS V14.01,2013-11-23 15:37:00,
2013-11-23 08:38:00,13.8,-1.8,30.27,SSW,193,2.7,2.7,49,0.00,,---,0.00,VWS V14.01,2013-11-23 15:38:00,
2013-11-23 08:39:00,14.0,0.0,30.27,SSW,193,2.2,2.2,53,0.00,,---,0.00,VWS V14.01,2013-11-23 15:39:00,
2013-11-23 08:42:00,14.4,0.4,30.27,SSW,193,2.7,3.1,53,0.00,,---,0.00,VWS V14.01,2013-11-23 15:42:00,
2013-11-23 08:43:00,14.4,0.0,30.27,SSW,193,2.2,2.7,52,0.00,,---,0.00,VWS V14.01,2013-11-23 15:43:00,
2013-11-23 08:44:00,14.5,0.1,30.27,SSW,193,2.7,2.7,52,0.00,,---,0.00,VWS V14.01,2013-11-23 15:44:00,
2013-11-23 08:45:00,18.0,1.6,30.26,South,183,0.0,0.0,48,0.00,,,0.00,VWS V15.00,2013-11-23 15:45:00,
2013-11-23 08:47:00,15.1,0.2,30.27,SSW,192,2.2,2.2,51,0.00,,---,0.00,VWS V14.01,2013-11-23 15:47:00,
2013-11-23 08:48:00,15.1,0.2,30.27,South,187,2.2,2.2,51,0.00,,---,0.00,VWS V14.01,2013-11-23 15:48:00,
2013-11-23 08:49:00,15.3,0.4,30.27,South,187,0.0,2.2,51,0.00,,---,0.00,VWS V14.01,2013-11-23 15:49:00,
2013-11-23 08:52:00,15.4,0.6,30.27,South,187,0.0,0.0,51,0.00,,---,0.00,VWS V14.01,2013-11-23 15:52:00,
2013-11-23 08:53:00,15.6,0.7,30.27,South,185,0.0,0.0,51,0.00,,---,0.00,VWS V14.01,2013-11-23 15:53:00,
2013-11-23 08:54:00,15.8,0.9,30.27,South,185,0.0,0.0,51,0.00,,---,0.00,VWS V14.01,2013-11-23 15:54:00,
2013-11-23 08:58:00,15.8,0.9,30.27,South,185,0.0,0.0,51,0.00,,---,0.00,VWS V14.01,2013-11-23 15:58:00,
2013-11-23 08:59:00,16.0,0.6,30.27,South,185,0.0,0.0,50,0.00,,---,0.00,VWS V14.01,2013-11-23 15:59:00,
2013-11-23 09:00:00,16.0,0.6,30.27,South,185,0.0,0.0,50,0.00,,---,0.00,VWS V14.01,2013-11-23 16:00:00,
2013-11-23 09:03:00,16.0,0.2,30.27,South,185,0.0,0.0,49,0.00,,---,0.00,VWS V14.01,2013-11-23 16:03:00,
2013-11-23 09:04:00,16.0,0.2,30.27,South,185,0.0,0.0,49,0.00,,---,0.00,VWS V14.01,2013-11-23 16:04:00,
2013-11-23 09:05:00,16.0,0.2,30.27,South,185,0.0,0.0,49,0.00,,---,0.00,VWS V14.01,2013-11-23 16:05:00,
2013-11-23 09:08:00,16.0,-0.2,30.27,South,185,3.6,3.6,48,0.00,,---,0.00,VWS V14.01,2013-11-23 16:08:00,
2013-11-23 09:09:00,16.0,-0.2,30.27,South,186,3.6,3.6,48,0.00,,---,0.00,VWS V14.01,2013-11-23 16:09:00,
2013-11-23 09:10:00,16.0,-0.2,30.27,South,189,3.1,4.0,48,0.00,,---,0.00,VWS V14.01,2013-11-23 16:10:00,
2013-11-23 09:13:00,16.0,-0.2,30.27,South,189,2.2,2.7,48,0.00,,---,0.00,VWS V14.01,2013-11-23 16:13:00,
2013-11-23 09:14:00,16.0,-0.2,30.27,South,189,2.2,2.2,48,0.00,,---,0.00,VWS V14.01,2013-11-23 16:14:00,
2013-11-23 09:15:00,16.0,-0.2,30.27,South,189,0.0,0.0,48,0.00,,---,0.00,VWS V14.01,2013-11-23 16:15:00,
2013-11-23 09:19:00,16.0,-0.2,30.27,South,189,2.2,2.7,48,0.00,,---,0.00,VWS V14.01,2013-11-23 16:19:00,
2013-11-23 09:20:00,16.2,-0.1,30.27,South,189,2.2,2.7,48,0.00,,---,0.00,VWS V14.01,2013-11-23 16:20:00,
2013-11-23 09:21:00,16.2,-0.1,30.27,South,189,0.0,2.2,48,0.00,,---,0.00,VWS V14.01,2013-11-23 16:21:00,
2013-11-23 09:24:00,16.2,-0.1,30.27,South,189,0.0,0.0,48,0.00,,---,0.00,VWS V14.01,2013-11-23 16:24:00,
2013-11-23 09:25:00,16.5,0.3,30.27,South,189,0.0,0.0,48,0.00,,---,0.00,VWS V14.01,2013-11-23 16:25:00,
2013-11-23 09:26:00,16.5,0.3,30.27,South,189,0.0,0.0,48,0.00,,---,0.00,VWS V14.01,2013-11-23 16:26:00,
2013-11-23 09:29:00,16.7,0.4,30.27,South,189,0.0,0.0,48,0.00,,---,0.00,VWS V14.01,2013-11-23 16:29:00,
2013-11-23 09:30:00,16.9,0.6,30.27,South,189,0.0,0.0,48,0.00,,---,0.00,VWS V14.01,2013-11-23 16:30:00,
2013-11-23 09:32:00,17.1,0.8,30.27,South,188,0.0,0.0,48,0.00,,---,0.00,VWS V14.01,2013-11-23 16:32:00,
2013-11-23 09:34:00,17.2,0.9,30.27,South,187,0.0,0.0,48,0.00,,---,0.00,VWS V14.01,2013-11-23 16:34:00,
2013-11-23 09:35:00,17.4,1.1,30.27,South,186,0.0,0.0,48,0.00,,---,0.00,VWS V14.01,2013-11-23 16:35:00,
2013-11-23 09:36:00,17.4,1.1,30.27,South,186,0.0,0.0,48,0.00,,---,0.00,VWS V14.01,2013-11-23 16:36:00,
2013-11-23 09:38:00,17.6,1.3,30.27,South,186,0.0,0.0,48,0.00,,---,0.00,VWS V14.01,2013-11-23 16:38:00,
2013-11-23 09:39:00,17.6,1.3,30.27,South,186,0.0,0.0,48,0.00,,---,0.00,VWS V14.01,2013-11-23 16:39:00,
2013-11-23 09:40:00,17.6,1.3,30.27,South,186,0.0,0.0,48,0.00,,---,0.00,VWS V14.01,2013-11-23 16:40:00,
2013-11-23 09:41:00,17.8,1.4,30.27,South,184,0.0,0.0,48,0.00,,---,0.00,VWS V14.01,2013-11-23 16:41:00,
2013-11-23 09:43:00,17.8,1.4,30.27,South,183,0.0,0.0,48,0.00,,---,0.00,VWS V14.01,2013-11-23 16:43:00,
2013-11-23 09:44:00,18.0,1.6,30.27,South,183,0.0,0.0,48,0.00,,---,0.00,VWS V14.01,2013-11-23 16:44:00,
2013-11-23 09:45:00,18.0,1.6,30.27,South,183,0.0,0.0,48,0.00,,---,0.00,VWS V14.01,2013-11-23 16:45:00,
2013-11-23 09:47:00,18.1,1.8,30.27,South,183,0.0,0.0,48,0.00,,---,0.00,VWS V14.01,2013-11-23 16:47:00,
2013-11-23 09:49:00,18.1,1.3,30.27,South,183,0.0,0.0,47,0.00,,---,0.00,VWS V14.01,2013-11-23 16:49:00,
2013-11-23 09:50:00,18.1,1.3,30.27,South,183,0.0,0.0,47,0.00,,---,0.00,VWS V14.01,2013-11-23 16:50:00,
2013-11-23 09:51:00,18.1,1.3,30.27,South,183,0.0,0.0,47,0.00,,---,0.00,VWS V14.01,2013-11-23 16:51:00,
2013-11-23 09:52:00,18.1,1.3,30.27,South,183,0.0,0.0,47,0.00,,---,0.00,VWS V14.01,2013-11-23 16:52:00,
2013-11-23 09:54:00,18.1,1.3,30.27,South,183,0.0,0.0,47,0.00,,---,0.00,VWS V14.01,2013-11-23 16:54:00,
2013-11-23 09:55:00,18.3,1.5,30.27,South,183,0.0,0.0,47,0.00,,---,0.00,VWS V14.01,2013-11-23 16:55:00,
2013-11-23 09:56:00,18.3,1.5,30.27,South,183,0.0,0.0,47,0.00,,---,0.00,VWS V14.01,2013-11-23 16:56:00,
2013-11-23 09:58:00,18.3,1.5,30.27,South,183,0.0,0.0,47,0.00,,---,0.00,VWS V14.01,2013-11-23 16:58:00,
2013-11-23 09:59:00,18.3,1.5,30.27,South,183,0.0,0.0,47,0.00,,---,0.00,VWS V14.01,2013-11-23 16:59:00,
2013-11-23 10:00:00,18.5,1.6,30.27,South,183,0.0,0.0,47,0.00,,---,0.00,VWS V14.01,2013-11-23 17:00:00,
2013-11-23 10:01:00,18.5,1.2,30.27,South,183,0.0,0.0,46,0.00,,---,0.00,VWS V14.01,2013-11-23 17:01:00,
2013-11-23 10:03:00,18.5,1.2,30.27,South,183,0.0,0.0,46,0.00,,---,0.00,VWS V14.01,2013-11-23 17:03:00,
2013-11-23 10:04:00,18.5,1.2,30.27,South,178,0.0,0.0,46,0.00,,---,0.00,VWS V14.01,2013-11-23 17:04:00,
2013-11-23 10:05:00,18.5,1.2,30.27,South,178,0.0,0.0,46,0.00,,---,0.00,VWS V14.01,2013-11-23 17:05:00,
2013-11-23 10:06:00,18.5,1.2,30.27,South,177,0.0,0.0,46,0.00,,---,0.00,VWS V14.01,2013-11-23 17:06:00,
2013-11-23 10:08:00,18.5,1.2,30.27,South,170,0.0,0.0,46,0.00,,---,0.00,VWS V14.01,2013-11-23 17:08:00,
2013-11-23 10:09:00,18.5,1.2,30.27,NE,48,0.0,0.0,46,0.00,,---,0.00,VWS V14.01,2013-11-23 17:09:00,
2013-11-23 10:10:00,18.5,1.6,30.27,NNE,30,0.0,0.0,47,0.00,,---,0.00,VWS V14.01,2013-11-23 17:10:00,
2013-11-23 10:11:00,18.3,1.5,30.27,NNE,25,2.7,2.7,47,0.00,,---,0.00,VWS V14.01,2013-11-23 17:11:00,
2013-11-23 10:13:00,18.3,1.5,30.27,NNE,19,3.1,3.6,47,0.00,,---,0.00,VWS V14.01,2013-11-23 17:13:00,
2013-11-23 10:15:00,18.3,1.5,30.27,NNE,17,2.7,2.7,47,0.00,,---,0.00,VWS V14.01,2013-11-23 17:15:00,
2013-11-23 10:16:00,18.3,1.5,30.27,NNE,17,2.2,2.7,47,0.00,,---,0.00,VWS V14.01,2013-11-23 17:16:00,
2013-11-23 10:17:00,18.3,1.5,30.27,NNE,17,2.7,2.7,47,0.00,,---,0.00,VWS V14.01,2013-11-23 17:17:00,
2013-11-23 10:18:00,18.3,1.5,30.27,NNE,17,2.7,2.7,47,0.00,,---,0.00,VWS V14.01,2013-11-23 17:18:00,
2013-11-23 10:20:00,18.3,1.9,30.27,NNE,17,2.7,2.7,48,0.00,,---,0.00,VWS V14.01,2013-11-23 17:20:00,
2013-11-23 10:21:00,18.5,2.1,30.27,NNE,17,2.2,2.2,48,0.00,,---,0.00,VWS V14.01,2013-11-23 17:21:00,
2013-11-23 10:23:00,18.5,2.1,30.27,NNE,17,2.7,2.7,48,0.00,,---,0.00,VWS V14.01,2013-11-23 17:23:00,
2013-11-23 10:25:00,18.7,2.3,30.27,NNE,16,2.7,3.1,48,0.00,,---,0.00,VWS V14.01,2013-11-23 17:25:00,
2013-11-23 10:26:00,18.7,2.3,30.27,NNE,16,2.7,2.7,48,0.00,,---,0.00,VWS V14.01,2013-11-23 17:26:00,
2013-11-23 10:28:00,18.7,2.3,30.27,NNE,15,3.1,3.1,48,0.00,,---,0.00,VWS V14.01,2013-11-23 17:28:00,
2013-11-23 10:29:00,18.7,2.3,30.27,NNE,13,3.6,3.6,48,0.00,,---,0.00,VWS V14.01,2013-11-23 17:29:00,
2013-11-23 10:30:00,21.7,3.7,30.24,NNE,15,3.1,3.1,45,0.00,,,0.00,VWS V15.00,2013-11-23 17:30:00,
2013-11-23 10:31:00,18.9,2.0,30.27,NNE,13,3.1,3.1,47,0.00,,---,0.00,VWS V14.01,2013-11-23 17:31:00,
2013-11-23 10:34:00,19.0,2.1,30.27,NNE,13,2.7,3.1,47,0.00,,---,0.00,VWS V14.01,2013-11-23 17:34:00,
2013-11-23 10:36:00,19.2,2.3,30.27,NNE,13,2.7,2.7,47,0.00,,---,0.00,VWS V14.01,2013-11-23 17:36:00,
2013-11-23 10:39:00,19.4,2.5,30.27,NNE,13,3.1,3.1,47,0.00,,---,0.00,VWS V14.01,2013-11-23 17:39:00,
2013-11-23 10:41:00,19.4,2.5,30.27,NNE,12,3.1,3.1,47,0.00,,---,0.00,VWS V14.01,2013-11-23 17:41:00,
2013-11-23 10:44:00,19.6,2.2,30.27,North,11,3.6,3.6,46,0.00,,---,0.00,VWS V14.01,2013-11-23 17:44:00,
2013-11-23 10:45:00,21.7,3.2,30.24,North,3,4.0,4.0,44,0.00,,,0.00,VWS V15.00,2013-11-23 17:45:00,
2013-11-23 10:46:00,19.8,2.3,30.27,North,11,2.7,2.7,46,0.00,,---,0.00,VWS V14.01,2013-11-23 17:46:00,
2013-11-23 10:49:00,19.9,2.5,30.27,North,11,3.1,3.1,46,0.00,,---,0.00,VWS V14.01,2013-11-23 17:49:00,
2013-11-23 10:50:00,19.9,2.5,30.27,North,11,2.7,3.1,46,0.00,,---,0.00,VWS V14.01,2013-11-23 17:50:00,
2013-11-23 10:51:00,20.1,2.7,30.27,North,11,2.7,2.7,46,0.00,,---,0.00,VWS V14.01,2013-11-23 17:51:00,
2013-11-23 10:52:00,20.1,2.7,30.27,North,10,3.1,3.1,46,0.00,,---,0.00,VWS V14.01,2013-11-23 17:52:00,
2013-11-23 10:55:00,20.3,2.8,30.27,NNE,16,2.2,2.7,46,0.00,,---,0.00,VWS V14.01,2013-11-23 17:55:00,
2013-11-23 10:56:00,20.3,2.8,30.27,NNE,15,3.1,3.1,46,0.00,,---,0.00,VWS V14.01,2013-11-23 17:56:00,
2013-11-23 10:57:00,20.3,2.8,30.27,NNE,16,3.1,3.1,46,0.00,,---,0.00,VWS V14.01,2013-11-23 17:57:00,
2013-11-23 11:00:00,20.3,2.8,30.27,NNE,20,0.0,2.7,46,0.00,,---,0.00,VWS V14.01,2013-11-23 18:00:00,
2013-11-23 11:01:00,20.3,2.8,30.27,NNE,18,3.1,3.1,46,0.00,,---,0.00,VWS V14.01,2013-11-23 18:01:00,
2013-11-23 11:02:00,20.3,2.8,30.27,NNE,18,3.1,3.1,46,0.00,,---,0.00,VWS V14.01,2013-11-23 18:02:00,
2013-11-23 11:05:00,20.5,3.0,30.27,North,8,3.1,3.6,46,0.00,,---,0.00,VWS V14.01,2013-11-23 18:05:00,
2013-11-23 11:06:00,20.7,3.2,30.27,North,8,2.7,3.1,46,0.00,,---,0.00,VWS V14.01,2013-11-23 18:06:00,
2013-11-23 11:07:00,20.7,3.2,30.27,North,8,2.2,3.1,46,0.00,,---,0.00,VWS V14.01,2013-11-23 18:07:00,
2013-11-23 11:10:00,20.7,3.2,30.27,North,7,3.1,3.1,46,0.00,,---,0.00,VWS V14.01,2013-11-23 18:10:00,
2013-11-23 11:12:00,20.8,3.3,30.27,North,9,3.1,3.6,46,0.00,,---,0.00,VWS V14.01,2013-11-23 18:12:00,
2013-11-23 11:15:00,21.0,3.0,30.27,North,11,2.7,2.7,45,0.00,,---,0.00,VWS V14.01,2013-11-23 18:15:00,
2013-11-23 11:16:00,21.0,3.0,30.27,North,11,3.1,3.1,45,0.00,,---,0.00,VWS V14.01,2013-11-23 18:16:00,
2013-11-23 11:17:00,21.2,3.7,30.24,North,11,3.1,3.1,46,0.00,,---,0.00,VWS V14.01,2013-11-23 18:17:00,
2013-11-23 11:18:00,21.2,3.7,30.24,NNE,12,2.7,3.1,46,0.00,,---,0.00,VWS V14.01,2013-11-23 18:18:00,
2013-11-23 11:21:00,21.4,3.3,30.24,North,10,3.6,3.6,45,0.00,,---,0.00,VWS V14.01,2013-11-23 18:21:00,
2013-11-23 11:22:00,21.4,3.3,30.24,North,8,2.7,3.1,45,0.00,,---,0.00,VWS V14.01,2013-11-23 18:22:00,
2013-11-23 11:23:00,21.4,3.3,30.24,North,9,3.6,3.6,45,0.00,,---,0.00,VWS V14.01,2013-11-23 18:23:00,
2013-11-23 11:26:00,21.6,3.5,30.24,North,9,4.0,4.0,45,0.00,,---,0.00,VWS V14.01,2013-11-23 18:26:00,
2013-11-23 11:27:00,21.6,3.5,30.24,NNE,12,3.6,3.6,45,0.00,,---,0.00,VWS V14.01,2013-11-23 18:27:00,
2013-11-23 11:28:00,21.7,3.7,30.24,NNE,16,4.0,4.0,45,0.00,,---,0.00,VWS V14.01,2013-11-23 18:28:00,
2013-11-23 11:30:00,24.8,5.5,30.24,North,5,2.7,2.7,43,0.00,,,0.00,VWS V15.00,2013-11-23 18:30:00,
2013-11-23 11:31:00,21.7,3.7,30.24,North,9,4.0,4.0,45,0.00,,---,0.00,VWS V14.01,2013-11-23 18:31:00,
2013-11-23 11:32:00,21.7,3.7,30.24,North,5,3.6,4.0,45,0.00,,---,0.00,VWS V14.01,2013-11-23 18:32:00,
2013-11-23 11:33:00,21.7,3.7,30.24,NNE,15,3.6,4.0,45,0.00,,---,0.00,VWS V14.01,2013-11-23 18:33:00,
2013-11-23 11:36:00,21.7,3.7,30.24,NNE,15,2.7,3.6,45,0.00,,---,0.00,VWS V14.01,2013-11-23 18:36:00,
2013-11-23 11:37:00,21.9,3.8,30.24,NNE,20,3.6,4.0,45,0.00,,---,0.00,VWS V14.01,2013-11-23 18:37:00,
2013-11-23 11:38:00,21.9,3.4,30.24,NNE,20,2.2,4.0,44,0.00,,---,0.00,VWS V14.01,2013-11-23 18:38:00,
2013-11-23 11:39:00,21.9,3.8,30.24,NNE,20,2.2,2.7,45,0.00,,---,0.00,VWS V14.01,2013-11-23 18:39:00,
2013-11-23 11:41:00,21.9,3.8,30.24,North,11,4.0,4.9,45,0.00,,---,0.00,VWS V14.01,2013-11-23 18:41:00,
2013-11-23 11:42:00,21.9,3.8,30.24,North,7,4.0,4.0,45,0.00,,---,0.00,VWS V14.01,2013-11-23 18:42:00,
2013-11-23 11:43:00,21.9,3.4,30.24,North,9,3.6,4.0,44,0.00,,---,0.00,VWS V14.01,2013-11-23 18:43:00,
2013-11-23 11:44:00,21.9,3.4,30.24,North,10,3.6,3.6,44,0.00,,---,0.00,VWS V14.01,2013-11-23 18:44:00,
2013-11-23 11:45:00,25.2,5.3,30.24,North,7,0.0,0.0,42,0.00,,,0.00,VWS V15.00,2013-11-23 18:45:00,
2013-11-23 11:46:00,21.9,3.8,30.24,North,10,3.6,3.6,45,0.00,,---,0.00,VWS V14.01,2013-11-23 18:46:00,
2013-11-23 11:47:00,21.9,3.8,30.24,NNE,16,4.0,4.0,45,0.00,,---,0.00,VWS V14.01,2013-11-23 18:47:00,
2013-11-23 11:48:00,21.9,3.8,30.24,NNE,17,2.7,4.0,45,0.00,,---,0.00,VWS V14.01,2013-11-23 18:48:00,
2013-11-23 11:49:00,21.9,3.8,30.24,North,1,4.0,4.9,45,0.00,,---,0.00,VWS V14.01,2013-11-23 18:49:00,
2013-11-23 11:51:00,21.9,3.8,30.24,North,6,2.7,2.7,45,0.00,,---,0.00,VWS V14.01,2013-11-23 18:51:00,
2013-11-23 11:52:00,21.9,3.8,30.24,North,6,2.7,3.6,45,0.00,,---,0.00,VWS V14.01,2013-11-23 18:52:00,
2013-11-23 11:53:00,21.9,3.8,30.24,North,6,3.1,3.1,45,0.00,,---,0.00,VWS V14.01,2013-11-23 18:53:00,
2013-11-23 11:54:00,21.9,3.8,30.24,North,6,2.7,2.7,45,0.00,,---,0.00,VWS V14.01,2013-11-23 18:54:00,
2013-11-23 11:56:00,22.1,4.0,30.24,NNE,19,3.6,4.0,45,0.00,,---,0.00,VWS V14.01,2013-11-23 18:56:00,
2013-11-23 11:58:00,22.1,4.0,30.24,NNE,20,2.2,3.1,45,0.00,,---,0.00,VWS V14.01,2013-11-23 18:58:00,
2013-11-23 11:59:00,22.1,4.0,30.24,NNE,21,3.1,3.1,45,0.00,,---,0.00,VWS V14.01,2013-11-23 18:59:00,
2013-11-23 12:00:00,22.3,4.2,30.24,North,5,4.0,4.0,45,0.00,,---,0.00,VWS V14.01,2013-11-23 19:00:00,
2013-11-23 12:01:00,22.3,4.2,30.24,North,4,3.6,4.0,45,0.00,,---,0.00,VWS V14.01,2013-11-23 19:01:00,
2013-11-23 12:03:00,22.1,4.0,30.24,North,4,3.6,3.6,45,0.00,,---,0.00,VWS V14.01,2013-11-23 19:03:00,
2013-11-23 12:04:00,22.1,4.0,30.24,North,6,3.6,4.0,45,0.00,,---,0.00,VWS V14.01,2013-11-23 19:04:00,
2013-11-23 12:05:00,22.1,4.0,30.24,North,6,0.0,2.7,45,0.00,,---,0.00,VWS V14.01,2013-11-23 19:05:00,
2013-11-23 12:07:00,22.1,4.0,30.24,North,6,2.2,2.2,45,0.00,,---,0.00,VWS V14.01,2013-11-23 19:07:00,
2013-11-23 12:08:00,22.1,4.0,30.24,North,6,0.0,2.2,45,0.00,,---,0.00,VWS V14.01,2013-11-23 19:08:00,
2013-11-23 12:09:00,22.3,4.2,30.24,NNE,27,0.0,0.0,45,0.00,,---,0.00,VWS V14.01,2013-11-23 19:09:00,
2013-11-23 12:11:00,22.5,4.3,30.24,NNE,33,0.0,0.0,45,0.00,,---,0.00,VWS V14.01,2013-11-23 19:11:00,
2013-11-23 12:12:00,22.6,4.5,30.24,NE,41,0.0,0.0,45,0.00,,---,0.00,VWS V14.01,2013-11-23 19:12:00,
2013-11-23 12:13:00,22.8,4.7,30.24,NE,47,0.0,0.0,45,0.00,,---,0.00,VWS V14.01,2013-11-23 19:13:00,
2013-11-23 12:14:00,23.2,4.5,30.24,NNE,24,0.0,0.0,44,0.00,,---,0.00,VWS V14.01,2013-11-23 19:14:00,
2013-11-23 12:15:00,23.2,4.5,30.24,NNE,23,0.0,0.0,44,0.00,,---,0.00,VWS V14.01,2013-11-23 19:15:00,
2013-11-23 12:16:00,23.4,4.7,30.24,NNE,22,0.0,0.0,44,0.00,,---,0.00,VWS V14.01,2013-11-23 19:16:00,
2013-11-23 12:17:00,23.5,4.8,30.24,NNE,18,0.0,0.0,44,0.00,,---,0.00,VWS V14.01,2013-11-23 19:17:00,
2013-11-23 12:18:00,23.5,4.8,30.24,North,10,3.6,3.6,44,0.00,,---,0.00,VWS V14.01,2013-11-23 19:18:00,
2013-11-23 12:20:00,23.7,5.0,30.24,North,8,3.6,3.6,44,0.00,,---,0.00,VWS V14.01,2013-11-23 19:20:00,
2013-11-23 12:21:00,23.9,4.7,30.24,North,7,2.7,4.0,43,0.00,,---,0.00,VWS V14.01,2013-11-23 19:21:00,
2013-11-23 12:23:00,24.1,4.8,30.24,North,8,2.7,2.7,43,0.00,,---,0.00,VWS V14.01,2013-11-23 19:23:00,
2013-11-23 12:25:00,24.4,5.2,30.24,North,9,2.7,2.7,43,0.00,,---,0.00,VWS V14.01,2013-11-23 19:25:00,
2013-11-23 12:26:00,24.4,5.2,30.24,North,7,3.6,3.6,43,0.00,,---,0.00,VWS V14.01,2013-11-23 19:26:00,
2013-11-23 12:28:00,24.6,5.3,30.24,North,3,4.0,4.0,43,0.00,,---,0.00,VWS V14.01,2013-11-23 19:28:00,
2013-11-23 12:30:00,24.8,5.5,30.24,North,5,3.1,3.1,43,0.00,,---,0.00,VWS V14.01,2013-11-23 19:30:00,
2013-11-23 12:31:00,24.8,5.5,30.24,North,8,2.7,2.7,43,0.00,,---,0.00,VWS V14.01,2013-11-23 19:31:00,
2013-11-23 12:33:00,24.8,5.5,30.24,North,7,2.2,2.7,43,0.00,,---,0.00,VWS V14.01,2013-11-23 19:33:00,
2013-11-23 12:34:00,24.8,5.0,30.24,North,7,2.7,2.7,42,0.00,,---,0.00,VWS V14.01,2013-11-23 19:34:00,
2013-11-23 12:35:00,25.0,5.1,30.24,North,7,3.1,3.1,42,0.00,,---,0.00,VWS V14.01,2013-11-23 19:35:00,
2013-11-23 12:36:00,25.0,5.1,30.24,North,6,3.1,3.1,42,0.00,,---,0.00,VWS V14.01,2013-11-23 19:36:00,
2013-11-23 12:38:00,25.0,5.1,30.24,North,6,2.7,2.7,42,0.00,,---,0.00,VWS V14.01,2013-11-23 19:38:00,
2013-11-23 12:39:00,25.0,5.1,30.24,North,6,3.1,3.6,42,0.00,,---,0.00,VWS V14.01,2013-11-23 19:39:00,
2013-11-23 12:40:00,25.0,5.1,30.24,North,10,2.7,3.1,42,0.00,,---,0.00,VWS V14.01,2013-11-23 19:40:00,
2013-11-23 12:41:00,25.0,5.1,30.24,North,10,0.0,0.0,42,0.00,,---,0.00,VWS V14.01,2013-11-23 19:41:00,
2013-11-23 12:43:00,25.2,5.3,30.24,North,9,0.0,0.0,42,0.00,,---,0.00,VWS V14.01,2013-11-23 19:43:00,
2013-11-23 12:44:00,25.2,5.3,30.24,North,7,0.0,0.0,42,0.00,,---,0.00,VWS V14.01,2013-11-23 19:44:00,
2013-11-23 12:45:00,25.2,5.3,30.24,North,7,0.0,0.0,42,0.00,,---,0.00,VWS V14.01,2013-11-23 19:45:00,
2013-11-23 12:46:00,25.2,5.3,30.21,North,5,3.1,4.0,42,0.00,,---,0.00,VWS V14.01,2013-11-23 19:46:00,
2013-11-23 12:48:00,25.3,5.5,30.21,North,4,2.7,3.6,42,0.00,,---,0.00,VWS V14.01,2013-11-23 19:48:00,
2013-11-23 12:50:00,25.3,5.5,30.21,North,4,2.7,3.1,42,0.00,,---,0.00,VWS V14.01,2013-11-23 19:50:00,
2013-11-23 12:52:00,25.3,5.5,30.21,North,4,2.2,2.7,42,0.00,,---,0.00,VWS V14.01,2013-11-23 19:52:00,
2013-11-23 12:54:00,25.5,5.6,30.21,North,4,2.2,2.2,42,0.00,,---,0.00,VWS V14.01,2013-11-23 19:54:00,
2013-11-23 12:55:00,25.5,5.6,30.21,North,4,0.0,0.0,42,0.00,,---,0.00,VWS V14.01,2013-11-23 19:55:00,
2013-11-23 12:58:00,25.7,5.3,30.21,North,4,2.7,3.1,41,0.00,,---,0.00,VWS V14.01,2013-11-23 19:58:00,
2013-11-23 12:59:00,25.7,5.3,30.21,North,3,2.7,3.1,41,0.00,,---,0.00,VWS V14.01,2013-11-23 19:59:00,
2013-11-23 13:00:00,25.9,5.4,30.21,North,3,3.6,3.6,41,0.00,,---,0.00,VWS V14.01,2013-11-23 20:00:00,
2013-11-23 13:01:00,25.9,5.4,30.21,North,3,2.7,2.7,41,0.00,,---,0.00,VWS V14.01,2013-11-23 20:01:00,
2013-11-23 13:03:00,26.1,5.6,30.21,North,5,3.1,3.6,41,0.00,,---,0.00,VWS V14.01,2013-11-23 20:03:00,
2013-11-23 13:04:00,26.1,5.6,30.21,North,4,2.2,2.2,41,0.00,,---,0.00,VWS V14.01,2013-11-23 20:04:00,
2013-11-23 13:05:00,26.1,5.6,30.21,North,4,0.0,2.7,41,0.00,,---,0.00,VWS V14.01,2013-11-23 20:05:00,
2013-11-23 13:06:00,26.2,5.8,30.21,North,4,2.7,2.7,41,0.00,,---,0.00,VWS V14.01,2013-11-23 20:06:00,
2013-11-23 13:08:00,26.4,5.9,30.21,North,6,3.1,3.1,41,0.00,,---,0.00,VWS V14.01,2013-11-23 20:08:00,
2013-11-23 13:09:00,26.4,5.9,30.21,North,4,4.0,4.0,41,0.00,,---,0.00,VWS V14.01,2013-11-23 20:09:00,
2013-11-23 13:10:00,26.4,5.9,30.21,North,4,2.7,3.6,41,0.00,,---,0.00,VWS V14.01,2013-11-23 20:10:00,
2013-11-23 13:11:00,26.4,5.9,30.21,North,10,3.6,3.6,41,0.00,,---,0.00,VWS V14.01,2013-11-23 20:11:00,
2013-11-23 13:14:00,26.4,5.9,30.21,NNE,13,0.0,0.0,41,0.00,,---,0.00,VWS V14.01,2013-11-23 20:14:00,
2013-11-23 13:15:00,26.6,6.1,30.21,North,10,2.7,2.7,41,0.00,,---,0.00,VWS V14.01,2013-11-23 20:15:00,
2013-11-23 13:16:00,26.6,6.6,30.21,North,11,3.1,3.1,42,0.00,,---,0.00,VWS V14.01,2013-11-23 20:16:00,
2013-11-23 13:19:00,26.6,6.6,30.21,NNE,20,0.0,0.0,42,0.00,,---,0.00,VWS V14.01,2013-11-23 20:19:00,
2013-11-23 13:20:00,26.8,6.2,30.21,NNE,20,0.0,0.0,41,0.00,,---,0.00,VWS V14.01,2013-11-23 20:20:00,
2013-11-23 13:21:00,26.8,6.2,30.21,NNE,12,0.0,0.0,41,0.00,,---,0.00,VWS V14.01,2013-11-23 20:21:00,
2013-11-23 13:24:00,26.8,6.2,30.21,NNE,12,0.0,0.0,41,0.00,,---,0.00,VWS V14.01,2013-11-23 20:24:00,
2013-11-23 13:25:00,27.0,6.4,30.21,North,10,0.0,0.0,41,0.00,,---,0.00,VWS V14.01,2013-11-23 20:25:00,
2013-11-23 13:26:00,27.0,6.4,30.21,North,8,0.0,0.0,41,0.00,,---,0.00,VWS V14.01,2013-11-23 20:26:00,
2013-11-23 13:29:00,27.1,6.6,30.21,North,8,0.0,0.0,41,0.00,,---,0.00,VWS V14.01,2013-11-23 20:29:00,
2013-11-23 13:30:00,29.5,4.6,30.18,NNE,14,2.7,2.7,34,0.00,,,0.00,VWS V15.00,2013-11-23 20:30:00,
2013-11-23 13:31:00,27.1,6.6,30.21,North,8,0.0,0.0,41,0.00,,---,0.00,VWS V14.01,2013-11-23 20:31:00,
2013-11-23 13:32:00,27.3,6.7,30.21,NNE,13,0.0,0.0,41,0.00,,---,0.00,VWS V14.01,2013-11-23 20:32:00,
2013-11-23 13:34:00,27.5,6.9,30.21,NE,34,0.0,0.0,41,0.00,,---,0.00,VWS V14.01,2013-11-23 20:34:00,
2013-11-23 13:35:00,27.5,6.9,30.21,NE,34,0.0,0.0,41,0.00,,---,0.00,VWS V14.01,2013-11-23 20:35:00,
2013-11-23 13:36:00,27.7,7.1,30.21,NNE,31,0.0,0.0,41,0.00,,---,0.00,VWS V14.01,2013-11-23 20:36:00,
2013-11-23 13:37:00,27.7,7.1,30.21,NNE,23,0.0,0.0,41,0.00,,---,0.00,VWS V14.01,2013-11-23 20:37:00,
2013-11-23 13:38:00,27.7,7.1,30.21,NNE,23,0.0,0.0,41,0.00,,---,0.00,VWS V14.01,2013-11-23 20:38:00,
2013-11-23 13:39:00,27.9,7.2,30.21,North,11,0.0,0.0,41,0.00,,---,0.00,VWS V14.01,2013-11-23 20:39:00,
2013-11-23 13:40:00,27.9,6.7,30.21,NNE,12,0.0,0.0,40,0.00,,---,0.00,VWS V14.01,2013-11-23 20:40:00,
2013-11-23 13:41:00,27.9,6.7,30.21,NNE,33,0.0,0.0,40,0.00,,---,0.00,VWS V14.01,2013-11-23 20:41:00,
2013-11-23 13:42:00,28.0,7.4,30.21,NNE,33,0.0,0.0,41,0.00,,---,0.00,VWS V14.01,2013-11-23 20:42:00,
2013-11-23 13:43:00,28.2,7.0,30.21,North,10,3.1,3.6,40,0.00,,---,0.00,VWS V14.01,2013-11-23 20:43:00,
2013-11-23 13:44:00,28.2,7.0,30.21,North,10,2.7,2.7,40,0.00,,---,0.00,VWS V14.01,2013-11-23 20:44:00,
2013-11-23 13:45:00,28.2,7.0,30.21,North,10,3.1,3.1,40,0.00,,---,0.00,VWS V14.01,2013-11-23 20:45:00,
2013-11-23 13:46:00,28.2,7.0,30.18,North,10,2.7,3.1,40,0.00,,---,0.00,VWS V14.01,2013-11-23 20:46:00,
2013-11-23 13:47:00,28.2,7.0,30.18,North,10,2.7,2.7,40,0.00,,---,0.00,VWS V14.01,2013-11-23 20:47:00,
2013-11-23 13:49:00,28.2,7.0,30.18,North,10,2.7,3.1,40,0.00,,---,0.00,VWS V14.01,2013-11-23 20:49:00,
2013-11-23 13:51:00,28.4,6.1,30.18,North,10,2.2,2.7,38,0.00,,---,0.00,VWS V14.01,2013-11-23 20:51:00,
2013-11-23 13:52:00,28.4,6.6,30.18,North,10,2.7,2.7,39,0.00,,---,0.00,VWS V14.01,2013-11-23 20:52:00,
2013-11-23 13:54:00,28.6,6.8,30.18,North,10,2.7,2.7,39,0.00,,---,0.00,VWS V14.01,2013-11-23 20:54:00,
2013-11-23 13:55:00,28.6,6.8,30.18,North,10,0.0,2.2,39,0.00,,---,0.00,VWS V14.01,2013-11-23 20:55:00,
2013-11-23 13:56:00,28.4,6.6,30.18,North,10,2.7,2.7,39,0.00,,---,0.00,VWS V14.01,2013-11-23 20:56:00,
2013-11-23 13:57:00,28.4,6.6,30.18,North,11,2.7,2.7,39,0.00,,---,0.00,VWS V14.01,2013-11-23 20:57:00,
2013-11-23 13:58:00,28.4,6.6,30.18,East,82,2.2,2.2,39,0.00,,---,0.00,VWS V14.01,2013-11-23 20:58:00,
2013-11-23 14:00:00,28.6,5.6,30.18,East,82,0.0,0.0,37,0.00,,---,0.00,VWS V14.01,2013-11-23 21:00:00,
2013-11-23 14:01:00,28.6,5.6,30.18,East,82,0.0,0.0,37,0.00,,---,0.00,VWS V14.01,2013-11-23 21:01:00,
2013-11-23 14:02:00,28.6,5.6,30.18,East,82,0.0,0.0,37,0.00,,---,0.00,VWS V14.01,2013-11-23 21:02:00,
2013-11-23 14:03:00,28.8,5.8,30.18,ENE,60,0.0,0.0,37,0.00,,---,0.00,VWS V14.01,2013-11-23 21:03:00,
2013-11-23 14:05:00,28.9,5.9,30.18,NE,45,0.0,0.0,37,0.00,,---,0.00,VWS V14.01,2013-11-23 21:05:00,
2013-11-23 14:07:00,28.9,5.3,30.18,ENE,59,0.0,0.0,36,0.00,,---,0.00,VWS V14.01,2013-11-23 21:07:00,
2013-11-23 14:08:00,28.9,5.3,30.18,ENE,59,0.0,0.0,36,0.00,,---,0.00,VWS V14.01,2013-11-23 21:08:00,
2013-11-23 14:10:00,29.1,5.5,30.18,ENE,59,0.0,0.0,36,0.00,,---,0.00,VWS V14.01,2013-11-23 21:10:00,
2013-11-23 14:12:00,29.3,5.7,30.18,ENE,73,0.0,0.0,36,0.00,,---,0.00,VWS V14.01,2013-11-23 21:12:00,
2013-11-23 14:13:00,29.3,5.7,30.18,ENE,73,0.0,0.0,36,0.00,,---,0.00,VWS V14.01,2013-11-23 21:13:00,
2013-11-23 14:15:00,29.3,5.1,30.18,ENE,73,0.0,0.0,35,0.00,,---,0.00,VWS V14.01,2013-11-23 21:15:00,
2013-11-23 14:17:00,29.3,5.7,30.18,ENE,73,0.0,0.0,36,0.00,,---,0.00,VWS V14.01,2013-11-23 21:17:00,
2013-11-23 14:18:00,29.3,5.1,30.18,ENE,73,0.0,0.0,35,0.00,,---,0.00,VWS V14.01,2013-11-23 21:18:00,
2013-11-23 14:20:00,29.3,5.1,30.18,ENE,73,0.0,0.0,35,0.00,,---,0.00,VWS V14.01,2013-11-23 21:20:00,
2013-11-23 14:22:00,29.5,5.2,30.18,ENE,71,0.0,0.0,35,0.00,,---,0.00,VWS V14.01,2013-11-23 21:22:00,
2013-11-23 14:23:00,29.5,5.2,30.18,ENE,69,0.0,0.0,35,0.00,,---,0.00,VWS V14.01,2013-11-23 21:23:00,
2013-11-23 14:24:00,29.5,5.2,30.18,NE,45,0.0,0.0,35,0.00,,---,0.00,VWS V14.01,2013-11-23 21:24:00,
2013-11-23 14:25:00,29.5,5.2,30.18,NNE,15,2.7,3.6,35,0.00,,---,0.00,VWS V14.01,2013-11-23 21:25:00,
2013-11-23 14:27:00,29.5,4.6,30.18,NNE,14,2.7,2.7,34,0.00,,---,0.00,VWS V14.01,2013-11-23 21:27:00,
2013-11-23 14:28:00,29.5,4.6,30.18,NNE,14,2.7,2.7,34,0.00,,---,0.00,VWS V14.01,2013-11-23 21:28:00,
2013-11-23 14:29:00,29.5,4.6,30.18,NNE,15,2.7,2.7,34,0.00,,---,0.00,VWS V14.01,2013-11-23 21:29:00,
2013-11-23 14:30:00,29.5,5.2,30.18,NNE,14,2.7,2.7,35,0.00,,---,0.00,VWS V14.01,2013-11-23 21:30:00,
2013-11-23 14:33:00,29.5,5.2,30.18,NNE,14,2.7,2.7,35,0.00,,---,0.00,VWS V14.01,2013-11-23 21:33:00,
2013-11-23 14:34:00,29.5,5.2,30.18,NNE,14,3.1,3.6,35,0.00,,---,0.00,VWS V14.01,2013-11-23 21:34:00,
2013-11-23 14:35:00,29.5,5.2,30.18,NNE,14,3.1,3.1,35,0.00,,---,0.00,VWS V14.01,2013-11-23 21:35:00,
2013-11-23 14:39:00,29.5,5.2,30.18,NNE,14,2.7,2.7,35,0.00,,---,0.00,VWS V14.01,2013-11-23 21:39:00,
2013-11-23 14:40:00,29.5,5.2,30.18,NNE,14,2.7,2.7,35,0.00,,---,0.00,VWS V14.01,2013-11-23 21:40:00,
2013-11-23 14:44:00,29.5,5.2,30.18,NNE,14,2.7,2.7,35,0.00,,---,0.00,VWS V14.01,2013-11-23 21:44:00,
2013-11-23 14:45:00,29.5,5.8,30.18,NNE,14,0.0,0.0,36,0.00,,---,0.00,VWS V14.01,2013-11-23 21:45:00,
2013-11-23 14:49:00,29.3,5.7,30.18,NNE,14,3.1,3.1,36,0.00,,---,0.00,VWS V14.01,2013-11-23 21:49:00,
2013-11-23 14:50:00,29.1,5.5,30.18,NNE,14,3.1,3.1,36,0.00,,---,0.00,VWS V14.01,2013-11-23 21:50:00,
2013-11-23 14:54:00,29.1,5.5,30.18,NNE,14,3.1,3.1,36,0.00,,---,0.00,VWS V14.01,2013-11-23 21:54:00,
2013-11-23 14:55:00,29.1,5.5,30.18,NNE,14,2.7,3.1,36,0.00,,---,0.00,VWS V14.01,2013-11-23 21:55:00,
2013-11-23 14:56:00,29.1,5.5,30.18,NNE,14,2.7,2.7,36,0.00,,---,0.00,VWS V14.01,2013-11-23 21:56:00,
2013-11-23 14:59:00,29.1,6.1,30.18,NNE,14,2.7,2.7,37,0.00,,---,0.00,VWS V14.01,2013-11-23 21:59:00,
2013-11-23 15:00:00,27.1,6.6,30.15,NNE,14,0.0,0.0,41,0.00,,,0.00,VWS V15.00,2013-11-23 22:00:00,
2013-11-23 15:01:00,29.1,6.1,30.18,NNE,14,2.2,2.2,37,0.00,,---,0.00,VWS V14.01,2013-11-23 22:01:00,
2013-11-23 15:04:00,28.9,7.1,30.15,NNE,14,2.2,3.1,39,0.00,,---,0.00,VWS V14.01,2013-11-23 22:04:00,
2013-11-23 15:05:00,28.9,7.1,30.15,NNE,14,2.2,2.2,39,0.00,,---,0.00,VWS V14.01,2013-11-23 22:05:00,
2013-11-23 15:06:00,28.9,7.1,30.15,NNE,14,2.7,2.7,39,0.00,,---,0.00,VWS V14.01,2013-11-23 22:06:00,
2013-11-23 15:07:00,28.9,7.1,30.15,NNE,14,2.2,2.7,39,0.00,,---,0.00,VWS V14.01,2013-11-23 22:07:00,
2013-11-23 15:09:00,28.8,6.9,30.15,NNE,14,0.0,2.2,39,0.00,,---,0.00,VWS V14.01,2013-11-23 22:09:00,
2013-11-23 15:10:00,28.8,6.9,30.15,NNE,14,0.0,2.2,39,0.00,,---,0.00,VWS V14.01,2013-11-23 22:10:00,
2013-11-23 15:11:00,28.8,6.9,30.15,NNE,14,2.2,2.2,39,0.00,,---,0.00,VWS V14.01,2013-11-23 22:11:00,
2013-11-23 15:12:00,28.8,6.9,30.15,NNE,14,2.7,2.7,39,0.00,,---,0.00,VWS V14.01,2013-11-23 22:12:00,
2013-11-23 15:14:00,28.6,7.3,30.15,NNE,14,2.7,2.7,40,0.00,,---,0.00,VWS V14.01,2013-11-23 22:14:00,
2013-11-23 15:15:00,28.6,7.3,30.15,NNE,14,0.0,2.2,40,0.00,,---,0.00,VWS V14.01,2013-11-23 22:15:00,
2013-11-23 15:16:00,28.6,7.3,30.15,NNE,14,2.7,2.7,40,0.00,,---,0.00,VWS V14.01,2013-11-23 22:16:00,
2013-11-23 15:17:00,28.6,7.3,30.15,NNE,14,2.2,2.2,40,0.00,,---,0.00,VWS V14.01,2013-11-23 22:17:00,
2013-11-23 15:19:00,28.6,7.3,30.15,NNE,14,2.7,2.7,40,0.00,,---,0.00,VWS V14.01,2013-11-23 22:19:00,
2013-11-23 15:20:00,28.6,7.3,30.15,NNE,14,2.2,2.7,40,0.00,,---,0.00,VWS V14.01,2013-11-23 22:20:00,
2013-11-23 15:21:00,28.6,7.3,30.15,NNE,14,2.2,2.7,40,0.00,,---,0.00,VWS V14.01,2013-11-23 22:21:00,
2013-11-23 15:22:00,28.6,7.3,30.15,NNE,14,2.2,2.7,40,0.00,,---,0.00,VWS V14.01,2013-11-23 22:22:00,
2013-11-23 15:25:00,28.4,7.7,30.15,NNE,14,2.2,2.2,41,0.00,,---,0.00,VWS V14.01,2013-11-23 22:25:00,
2013-11-23 15:26:00,28.4,7.7,30.15,NNE,14,2.7,2.7,41,0.00,,---,0.00,VWS V14.01,2013-11-23 22:26:00,
2013-11-23 15:27:00,28.2,7.6,30.15,NNE,14,2.2,2.7,41,0.00,,---,0.00,VWS V14.01,2013-11-23 22:27:00,
2013-11-23 15:30:00,28.2,7.6,30.15,NNE,14,2.2,2.2,41,0.00,,---,0.00,VWS V14.01,2013-11-23 22:30:00,
2013-11-23 15:31:00,28.2,7.6,30.15,NNE,14,2.7,2.7,41,0.00,,---,0.00,VWS V14.01,2013-11-23 22:31:00,
2013-11-23 15:32:00,28.0,7.4,30.15,NNE,14,2.7,2.7,41,0.00,,---,0.00,VWS V14.01,2013-11-23 22:32:00,
2013-11-23 15:33:00,28.0,7.4,30.15,NNE,14,2.7,2.7,41,0.00,,---,0.00,VWS V14.01,2013-11-23 22:33:00,
2013-11-23 15:35:00,28.0,7.4,30.15,NNE,14,0.0,2.2,41,0.00,,---,0.00,VWS V14.01,2013-11-23 22:35:00,
2013-11-23 15:36:00,28.0,7.4,30.15,NNE,14,0.0,0.0,41,0.00,,---,0.00,VWS V14.01,2013-11-23 22:36:00,
2013-11-23 15:37:00,28.0,7.4,30.15,NNE,14,2.2,2.2,41,0.00,,---,0.00,VWS V14.01,2013-11-23 22:37:00,
2013-11-23 15:38:00,28.0,7.4,30.15,NNE,14,0.0,0.0,41,0.00,,---,0.00,VWS V14.01,2013-11-23 22:38:00,
2013-11-23 15:40:00,28.0,7.4,30.15,NNE,14,0.0,0.0,41,0.00,,---,0.00,VWS V14.01,2013-11-23 22:40:00,
2013-11-23 15:41:00,28.0,7.4,30.15,NNE,14,0.0,0.0,41,0.00,,---,0.00,VWS V14.01,2013-11-23 22:41:00,
2013-11-23 15:42:00,28.0,7.4,30.15,NNE,14,0.0,0.0,41,0.00,,---,0.00,VWS V14.01,2013-11-23 22:42:00,
2013-11-23 15:43:00,28.0,7.4,30.15,NNE,14,0.0,0.0,41,0.00,,---,0.00,VWS V14.01,2013-11-23 22:43:00,
2013-11-23 15:45:00,27.9,7.2,30.15,NNE,14,0.0,0.0,41,0.00,,---,0.00,VWS V14.01,2013-11-23 22:45:00,
2013-11-23 15:46:00,27.9,7.2,30.15,NNE,14,0.0,0.0,41,0.00,,---,0.00,VWS V14.01,2013-11-23 22:46:00,
2013-11-23 15:47:00,27.9,7.2,30.15,NNE,14,0.0,0.0,41,0.00,,---,0.00,VWS V14.01,2013-11-23 22:47:00,
2013-11-23 15:48:00,27.7,7.1,30.15,NNE,14,0.0,0.0,41,0.00,,---,0.00,VWS V14.01,2013-11-23 22:48:00,
2013-11-23 15:50:00,27.5,6.9,30.15,NNE,14,0.0,0.0,41,0.00,,---,0.00,VWS V14.01,2013-11-23 22:50:00,
2013-11-23 15:51:00,27.5,6.9,30.15,NNE,14,0.0,0.0,41,0.00,,---,0.00,VWS V14.01,2013-11-23 22:51:00,
2013-11-23 15:52:00,27.3,6.7,30.15,NNE,14,0.0,0.0,41,0.00,,---,0.00,VWS V14.01,2013-11-23 22:52:00,
2013-11-23 15:54:00,27.3,6.7,30.15,NNE,14,0.0,0.0,41,0.00,,---,0.00,VWS V14.01,2013-11-23 22:54:00,
2013-11-23 15:55:00,27.1,6.6,30.15,NNE,14,0.0,0.0,41,0.00,,---,0.00,VWS V14.01,2013-11-23 22:55:00,
2013-11-23 15:56:00,27.1,6.6,30.15,NNE,14,0.0,0.0,41,0.00,,---,0.00,VWS V14.01,2013-11-23 22:56:00,
2013-11-23 15:57:00,27.1,6.6,30.15,NNE,14,0.0,0.0,41,0.00,,---,0.00,VWS V14.01,2013-11-23 22:57:00,
2013-11-23 15:59:00,27.1,6.6,30.15,NNE,14,0.0,0.0,41,0.00,,---,0.00,VWS V14.01,2013-11-23 22:59:00,
2013-11-23 16:00:00,27.1,6.6,30.15,NNE,14,0.0,0.0,41,0.00,,---,0.00,VWS V14.01,2013-11-23 23:00:00,
2013-11-23 16:01:00,27.1,7.1,30.15,NNE,14,0.0,0.0,42,0.00,,---,0.00,VWS V14.01,2013-11-23 23:01:00,
2013-11-23 16:02:00,27.1,7.1,30.15,NNE,14,0.0,0.0,42,0.00,,---,0.00,VWS V14.01,2013-11-23 23:02:00,
2013-11-23 16:04:00,27.0,6.9,30.15,NNE,14,0.0,0.0,42,0.00,,---,0.00,VWS V14.01,2013-11-23 23:04:00,
2013-11-23 16:05:00,27.0,6.9,30.15,NNE,14,0.0,0.0,42,0.00,,---,0.00,VWS V14.01,2013-11-23 23:05:00,
2013-11-23 16:07:00,26.8,6.8,30.15,NNE,14,0.0,0.0,42,0.00,,---,0.00,VWS V14.01,2013-11-23 23:07:00,
2013-11-23 16:08:00,26.8,6.8,30.15,NNE,14,0.0,0.0,42,0.00,,---,0.00,VWS V14.01,2013-11-23 23:08:00,
2013-11-23 16:09:00,26.6,6.6,30.15,NNE,14,0.0,0.0,42,0.00,,---,0.00,VWS V14.01,2013-11-23 23:09:00,
2013-11-23 16:10:00,26.6,6.6,30.15,NNE,14,0.0,0.0,42,0.00,,---,0.00,VWS V14.01,2013-11-23 23:10:00,
2013-11-23 16:11:00,26.6,6.6,30.15,NNE,14,0.0,0.0,42,0.00,,---,0.00,VWS V14.01,2013-11-23 23:11:00,
2013-11-23 16:12:00,26.6,6.6,30.15,NNE,14,0.0,0.0,42,0.00,,---,0.00,VWS V14.01,2013-11-23 23:12:00,
2013-11-23 16:13:00,26.6,6.6,30.15,NNE,14,0.0,0.0,42,0.00,,---,0.00,VWS V14.01,2013-11-23 23:13:00,
2013-11-23 16:14:00,26.6,6.6,30.15,NNE,14,0.0,0.0,42,0.00,,---,0.00,VWS V14.01,2013-11-23 23:14:00,
2013-11-23 16:15:00,26.6,6.6,30.15,NNE,14,0.0,0.0,42,0.00,,---,0.00,VWS V14.01,2013-11-23 23:15:00,
2013-11-23 16:16:00,26.6,6.6,30.15,NNE,14,0.0,0.0,42,0.00,,---,0.00,VWS V14.01,2013-11-23 23:16:00,
2013-11-23 16:17:00,26.4,6.4,30.15,NNE,14,0.0,0.0,42,0.00,,---,0.00,VWS V14.01,2013-11-23 23:17:00,
2013-11-23 16:18:00,26.4,6.4,30.15,NNE,14,0.0,0.0,42,0.00,,---,0.00,VWS V14.01,2013-11-23 23:18:00,
2013-11-23 16:19:00,26.4,6.4,30.15,NNE,14,0.0,0.0,42,0.00,,---,0.00,VWS V14.01,2013-11-23 23:19:00,
2013-11-23 16:21:00,26.2,6.3,30.15,NNE,14,0.0,0.0,42,0.00,,---,0.00,VWS V14.01,2013-11-23 23:21:00,
2013-11-23 16:22:00,26.2,6.3,30.15,NNE,14,0.0,0.0,42,0.00,,---,0.00,VWS V14.01,2013-11-23 23:22:00,
2013-11-23 16:23:00,26.2,6.3,30.15,NNE,14,0.0,0.0,42,0.00,,---,0.00,VWS V14.01,2013-11-23 23:23:00,
2013-11-23 16:24:00,26.1,6.1,30.15,NNE,14,0.0,0.0,42,0.00,,---,0.00,VWS V14.01,2013-11-23 23:24:00,
2013-11-23 16:26:00,26.1,6.1,30.15,NNE,14,0.0,0.0,42,0.00,,---,0.00,VWS V14.01,2013-11-23 23:26:00,
2013-11-23 16:27:00,25.9,6.0,30.15,NNE,14,0.0,0.0,42,0.00,,---,0.00,VWS V14.01,2013-11-23 23:27:00,
2013-11-23 16:28:00,25.7,5.8,30.15,NNE,14,0.0,0.0,42,0.00,,---,0.00,VWS V14.01,2013-11-23 23:28:00,
2013-11-23 16:29:00,25.7,5.8,30.15,NNE,14,0.0,0.0,42,0.00,,---,0.00,VWS V14.01,2013-11-23 23:29:00,
2013-11-23 16:30:00,21.9,4.8,30.12,NNE,14,0.0,0.0,47,0.00,,,0.00,VWS V15.00,2013-11-23 23:30:00,
2013-11-23 16:31:00,25.3,5.5,30.15,NNE,14,0.0,0.0,42,0.00,,---,0.00,VWS V14.01,2013-11-23 23:31:00,
2013-11-23 16:32:00,25.3,5.5,30.15,NNE,14,0.0,0.0,42,0.00,,---,0.00,VWS V14.01,2013-11-23 23:32:00,
2013-11-23 16:33:00,25.3,6.0,30.15,NNE,14,0.0,0.0,43,0.00,,---,0.00,VWS V14.01,2013-11-23 23:33:00,
2013-11-23 16:34:00,25.2,5.8,30.15,NNE,14,0.0,0.0,43,0.00,,---,0.00,VWS V14.01,2013-11-23 23:34:00,
2013-11-23 16:36:00,25.0,5.7,30.15,NNE,14,0.0,0.0,43,0.00,,---,0.00,VWS V14.01,2013-11-23 23:36:00,
2013-11-23 16:37:00,24.8,5.5,30.15,NNE,14,0.0,0.0,43,0.00,,---,0.00,VWS V14.01,2013-11-23 23:37:00,
2013-11-23 16:38:00,24.8,5.5,30.15,NNE,14,0.0,0.0,43,0.00,,---,0.00,VWS V14.01,2013-11-23 23:38:00,
2013-11-23 16:39:00,24.6,5.3,30.15,NNE,14,0.0,0.0,43,0.00,,---,0.00,VWS V14.01,2013-11-23 23:39:00,
2013-11-23 16:40:00,24.6,5.3,30.15,NNE,14,0.0,0.0,43,0.00,,---,0.00,VWS V14.01,2013-11-23 23:40:00,
2013-11-23 16:42:00,24.4,5.7,30.15,NNE,14,0.0,0.0,44,0.00,,---,0.00,VWS V14.01,2013-11-23 23:42:00,
2013-11-23 16:43:00,24.4,5.7,30.15,NNE,14,0.0,0.0,44,0.00,,---,0.00,VWS V14.01,2013-11-23 23:43:00,
2013-11-23 16:44:00,24.4,5.7,30.15,NNE,14,0.0,0.0,44,0.00,,---,0.00,VWS V14.01,2013-11-23 23:44:00,
2013-11-23 16:45:00,24.4,5.7,30.15,NNE,14,0.0,0.0,44,0.00,,---,0.00,VWS V14.01,2013-11-23 23:45:00,
2013-11-23 16:47:00,24.3,5.5,30.15,NNE,14,0.0,0.0,44,0.00,,---,0.00,VWS V14.01,2013-11-23 23:47:00,
2013-11-23 16:48:00,24.1,5.3,30.15,NNE,14,0.0,0.0,44,0.00,,---,0.00,VWS V14.01,2013-11-23 23:48:00,
2013-11-23 16:50:00,23.9,5.2,30.15,NNE,14,0.0,0.0,44,0.00,,---,0.00,VWS V14.01,2013-11-23 23:50:00,
2013-11-23 16:52:00,23.7,5.5,30.15,NNE,14,0.0,0.0,45,0.00,,---,0.00,VWS V14.01,2013-11-23 23:52:00,
2013-11-23 16:53:00,23.7,5.5,30.15,NNE,14,0.0,0.0,45,0.00,,---,0.00,VWS V14.01,2013-11-23 23:53:00,
2013-11-23 16:54:00,23.7,5.5,30.15,NNE,14,0.0,0.0,45,0.00,,---,0.00,VWS V14.01,2013-11-23 23:54:00,
2013-11-23 16:55:00,23.5,5.3,30.15,NNE,14,0.0,0.0,45,0.00,,---,0.00,VWS V14.01,2013-11-23 23:55:00,
2013-11-23 16:56:00,23.5,5.3,30.15,NNE,14,0.0,0.0,45,0.00,,---,0.00,VWS V14.01,2013-11-23 23:56:00,
2013-11-23 16:58:00,23.4,5.2,30.15,NNE,14,0.0,0.0,45,0.00,,---,0.00,VWS V14.01,2013-11-23 23:58:00,
2013-11-23 16:59:00,23.4,5.2,30.15,NNE,14,0.0,0.0,45,0.00,,---,0.00,VWS V14.01,2013-11-23 23:59:00,
2013-11-23 17:00:00,23.4,5.2,30.15,NNE,14,0.0,0.0,45,0.00,,---,0.00,VWS V14.01,2013-11-24 00:00:00,
2013-11-23 17:01:00,23.4,5.2,30.15,NNE,14,0.0,0.0,45,0.00,,---,0.00,VWS V14.01,2013-11-24 00:01:00,
2013-11-23 17:03:00,23.4,5.2,30.12,NNE,14,0.0,0.0,45,0.00,,---,0.00,VWS V14.01,2013-11-24 00:03:00,
2013-11-23 17:04:00,23.2,5.0,30.12,NNE,14,0.0,0.0,45,0.00,,---,0.00,VWS V14.01,2013-11-24 00:04:00,
2013-11-23 17:05:00,23.2,5.0,30.12,NNE,14,0.0,0.0,45,0.00,,---,0.00,VWS V14.01,2013-11-24 00:05:00,
2013-11-23 17:06:00,23.2,5.0,30.12,NNE,14,0.0,0.0,45,0.00,,---,0.00,VWS V14.01,2013-11-24 00:06:00,
2013-11-23 17:08:00,23.0,5.3,30.12,NNE,14,0.0,0.0,46,0.00,,---,0.00,VWS V14.01,2013-11-24 00:08:00,
2013-11-23 17:09:00,22.8,5.2,30.12,NNE,14,0.0,0.0,46,0.00,,---,0.00,VWS V14.01,2013-11-24 00:09:00,
2013-11-23 17:10:00,22.8,5.2,30.12,NNE,14,0.0,0.0,46,0.00,,---,0.00,VWS V14.01,2013-11-24 00:10:00,
2013-11-23 17:11:00,22.8,5.2,30.12,NNE,14,0.0,0.0,46,0.00,,---,0.00,VWS V14.01,2013-11-24 00:11:00,
2013-11-23 17:13:00,22.8,5.2,30.12,NNE,14,0.0,0.0,46,0.00,,---,0.00,VWS V14.01,2013-11-24 00:13:00,
2013-11-23 17:14:00,22.6,5.0,30.12,NNE,14,0.0,0.0,46,0.00,,---,0.00,VWS V14.01,2013-11-24 00:14:00,
2013-11-23 17:15:00,22.6,5.0,30.12,NNE,14,0.0,0.0,46,0.00,,---,0.00,VWS V14.01,2013-11-24 00:15:00,
2013-11-23 17:17:00,22.5,4.8,30.12,NNE,14,0.0,0.0,46,0.00,,---,0.00,VWS V14.01,2013-11-24 00:17:00,
2013-11-23 17:18:00,22.5,4.8,30.12,NNE,14,0.0,0.0,46,0.00,,---,0.00,VWS V14.01,2013-11-24 00:18:00,
2013-11-23 17:19:00,22.3,4.7,30.12,NNE,14,0.0,0.0,46,0.00,,---,0.00,VWS V14.01,2013-11-24 00:19:00,
2013-11-23 17:20:00,22.1,4.5,30.12,NNE,14,0.0,0.0,46,0.00,,---,0.00,VWS V14.01,2013-11-24 00:20:00,
2013-11-23 17:22:00,22.1,4.5,30.12,NNE,14,0.0,0.0,46,0.00,,---,0.00,VWS V14.01,2013-11-24 00:22:00,
2013-11-23 17:23:00,21.9,4.3,30.12,NNE,14,0.0,0.0,46,0.00,,---,0.00,VWS V14.01,2013-11-24 00:23:00,
2013-11-23 17:24:00,21.9,4.8,30.12,NNE,14,0.0,0.0,47,0.00,,---,0.00,VWS V14.01,2013-11-24 00:24:00,
2013-11-23 17:25:00,21.9,4.8,30.12,NNE,14,0.0,0.0,47,0.00,,---,0.00,VWS V14.01,2013-11-24 00:25:00,
2013-11-23 17:26:00,21.9,4.8,30.12,NNE,14,0.0,0.0,47,0.00,,---,0.00,VWS V14.01,2013-11-24 00:26:00,
2013-11-23 17:27:00,21.9,4.8,30.12,NNE,14,0.0,0.0,47,0.00,,---,0.00,VWS V14.01,2013-11-24 00:27:00,
2013-11-23 17:28:00,21.9,4.8,30.12,NNE,14,0.0,0.0,47,0.00,,---,0.00,VWS V14.01,2013-11-24 00:28:00,
2013-11-23 17:29:00,21.9,4.8,30.12,NNE,14,0.0,0.0,47,0.00,,---,0.00,VWS V14.01,2013-11-24 00:29:00,
2013-11-23 17:30:00,21.9,4.8,30.12,NNE,14,0.0,0.0,47,0.00,,---,0.00,VWS V14.01,2013-11-24 00:30:00,
2013-11-23 17:31:00,21.9,4.8,30.12,NNE,14,0.0,0.0,47,0.00,,---,0.00,VWS V14.01,2013-11-24 00:31:00,
2013-11-23 17:33:00,21.9,4.8,30.12,NNE,14,0.0,0.0,47,0.00,,---,0.00,VWS V14.01,2013-11-24 00:33:00,
2013-11-23 17:34:00,21.9,5.2,30.12,NNE,14,0.0,0.0,48,0.00,,---,0.00,VWS V14.01,2013-11-24 00:34:00,
2013-11-23 17:35:00,21.9,5.2,30.12,NNE,14,0.0,0.0,48,0.00,,---,0.00,VWS V14.01,2013-11-24 00:35:00,
2013-11-23 17:36:00,21.9,4.8,30.12,NNE,14,0.0,0.0,47,0.00,,---,0.00,VWS V14.01,2013-11-24 00:36:00,
2013-11-23 17:38:00,21.7,4.6,30.12,NNE,14,0.0,0.0,47,0.00,,---,0.00,VWS V14.01,2013-11-24 00:38:00,
2013-11-23 17:40:00,21.7,5.1,30.12,NNE,14,0.0,0.0,48,0.00,,---,0.00,VWS V14.01,2013-11-24 00:40:00,
2013-11-23 17:41:00,21.6,4.5,30.12,NNE,14,0.0,0.0,47,0.00,,---,0.00,VWS V14.01,2013-11-24 00:41:00,
2013-11-23 17:43:00,21.6,4.5,30.12,NNE,14,0.0,0.0,47,0.00,,---,0.00,VWS V14.01,2013-11-24 00:43:00,
2013-11-23 17:45:00,21.4,4.3,30.12,NNE,14,0.0,0.0,47,0.00,,---,0.00,VWS V14.01,2013-11-24 00:45:00,
2013-11-23 17:46:00,21.4,4.3,30.12,NNE,14,0.0,0.0,47,0.00,,---,0.00,VWS V14.01,2013-11-24 00:46:00,
2013-11-23 17:47:00,21.2,4.6,30.12,NNE,14,0.0,0.0,48,0.00,,---,0.00,VWS V14.01,2013-11-24 00:47:00,
2013-11-23 17:48:00,21.0,4.4,30.12,NNE,14,0.0,0.0,48,0.00,,---,0.00,VWS V14.01,2013-11-24 00:48:00,
2013-11-23 17:49:00,21.0,4.4,30.12,NNE,14,0.0,0.0,48,0.00,,---,0.00,VWS V14.01,2013-11-24 00:49:00,
2013-11-23 17:50:00,21.0,4.9,30.12,NNE,14,0.0,0.0,49,0.00,,---,0.00,VWS V14.01,2013-11-24 00:50:00,
2013-11-23 17:51:00,21.0,4.9,30.12,NNE,14,0.0,0.0,49,0.00,,---,0.00,VWS V14.01,2013-11-24 00:51:00,
2013-11-23 17:53:00,20.8,4.7,30.12,NNE,14,0.0,0.0,49,0.00,,---,0.00,VWS V14.01,2013-11-24 00:53:00,
2013-11-23 17:54:00,20.8,4.7,30.12,NNE,14,0.0,0.0,49,0.00,,---,0.00,VWS V14.01,2013-11-24 00:54:00,
2013-11-23 17:55:00,20.7,4.5,30.12,NNE,14,0.0,0.0,49,0.00,,---,0.00,VWS V14.01,2013-11-24 00:55:00,
2013-11-23 17:56:00,20.7,4.5,30.12,NNE,14,0.0,0.0,49,0.00,,---,0.00,VWS V14.01,2013-11-24 00:56:00,
2013-11-23 17:59:00,20.5,4.8,30.12,NNE,14,0.0,0.0,50,0.00,,---,0.00,VWS V14.01,2013-11-24 00:59:00,
2013-11-23 18:00:00,20.5,4.8,30.12,NNE,14,0.0,0.0,50,0.00,,---,0.00,VWS V14.01,2013-11-24 01:00:00,
2013-11-23 18:01:00,20.5,4.8,30.12,NNE,14,0.0,0.0,50,0.00,,---,0.00,VWS V14.01,2013-11-24 01:01:00,
2013-11-23 18:04:00,20.5,5.2,30.12,NNE,14,0.0,0.0,51,0.00,,---,0.00,VWS V14.01,2013-11-24 01:04:00,
2013-11-23 18:06:00,20.3,5.1,30.12,NNE,14,0.0,0.0,51,0.00,,---,0.00,VWS V14.01,2013-11-24 01:06:00,
2013-11-23 18:09:00,20.3,5.1,30.12,NNE,14,0.0,0.0,51,0.00,,---,0.00,VWS V14.01,2013-11-24 01:09:00,
2013-11-23 18:11:00,20.3,5.1,30.12,NNE,14,0.0,0.0,51,0.00,,---,0.00,VWS V14.01,2013-11-24 01:11:00,
2013-11-23 18:14:00,20.3,5.9,30.12,NNE,14,0.0,0.0,53,0.00,,---,0.00,VWS V14.01,2013-11-24 01:14:00,
2013-11-23 18:15:00,20.3,5.9,30.12,NNE,14,0.0,0.0,53,0.00,,---,0.00,VWS V14.01,2013-11-24 01:15:00,
2013-11-23 18:16:00,20.3,5.9,30.12,NNE,14,0.0,0.0,53,0.00,,---,0.00,VWS V14.01,2013-11-24 01:16:00,
2013-11-23 18:19:00,20.7,6.2,30.12,NNE,14,0.0,0.0,53,0.00,,---,0.00,VWS V14.01,2013-11-24 01:19:00,
2013-11-23 18:20:00,20.7,6.2,30.12,NNE,14,0.0,0.0,53,0.00,,---,0.00,VWS V14.01,2013-11-24 01:20:00,
2013-11-23 18:21:00,20.8,6.4,30.12,NNE,14,0.0,0.0,53,0.00,,---,0.00,VWS V14.01,2013-11-24 01:21:00,
2013-11-23 18:22:00,20.8,6.4,30.12,NNE,14,0.0,0.0,53,0.00,,---,0.00,VWS V14.01,2013-11-24 01:22:00,
2013-11-23 18:24:00,21.0,6.2,30.12,NNE,14,0.0,0.0,52,0.00,,---,0.00,VWS V14.01,2013-11-24 01:24:00,
2013-11-23 18:25:00,21.0,5.7,30.12,NNE,14,0.0,0.0,51,0.00,,---,0.00,VWS V14.01,2013-11-24 01:25:00,
2013-11-23 18:26:00,21.0,5.7,30.12,NNE,14,0.0,0.0,51,0.00,,---,0.00,VWS V14.01,2013-11-24 01:26:00,
2013-11-23 18:27:00,21.0,5.7,30.12,NNE,14,0.0,0.0,51,0.00,,---,0.00,VWS V14.01,2013-11-24 01:27:00,
2013-11-23 18:29:00,21.0,5.7,30.12,NNE,14,0.0,0.0,51,0.00,,---,0.00,VWS V14.01,2013-11-24 01:29:00,
2013-11-23 18:30:00,20.8,5.6,30.12,NNE,14,0.0,0.0,51,0.00,,---,0.00,VWS V14.01,2013-11-24 01:30:00,
2013-11-23 18:31:00,20.8,5.1,30.12,NNE,14,0.0,0.0,50,0.00,,---,0.00,VWS V14.01,2013-11-24 01:31:00,
2013-11-23 18:33:00,21.0,5.3,30.09,NNE,14,0.0,0.0,50,0.00,,---,0.00,VWS V14.01,2013-11-24 01:33:00,
2013-11-23 18:34:00,21.0,5.3,30.09,NNE,14,0.0,0.0,50,0.00,,---,0.00,VWS V14.01,2013-11-24 01:34:00,
2013-11-23 18:35:00,21.0,5.3,30.09,NNE,14,0.0,0.0,50,0.00,,---,0.00,VWS V14.01,2013-11-24 01:35:00,
2013-11-23 18:36:00,21.0,5.7,30.09,NNE,14,0.0,0.0,51,0.00,,---,0.00,VWS V14.01,2013-11-24 01:36:00,
2013-11-23 18:38:00,21.4,5.6,30.09,NNE,14,0.0,0.0,50,0.00,,---,0.00,VWS V14.01,2013-11-24 01:38:00,
2013-11-23 18:40:00,21.6,5.4,30.09,NNE,14,0.0,0.0,49,0.00,,---,0.00,VWS V14.01,2013-11-24 01:40:00,
2013-11-23 18:41:00,21.7,5.5,30.09,NNE,14,0.0,0.0,49,0.00,,---,0.00,VWS V14.01,2013-11-24 01:41:00,
2013-11-23 18:44:00,21.9,5.2,30.09,NNE,14,0.0,0.0,48,0.00,,---,0.00,VWS V14.01,2013-11-24 01:44:00,
2013-11-23 18:45:00,21.9,5.2,30.09,NNE,14,0.0,0.0,48,0.00,,---,0.00,VWS V14.01,2013-11-24 01:45:00,
2013-11-23 18:46:00,21.9,5.2,30.09,NNE,14,0.0,0.0,48,0.00,,---,0.00,VWS V14.01,2013-11-24 01:46:00,
2013-11-23 18:47:00,21.9,5.2,30.09,NNE,14,0.0,0.0,48,0.00,,---,0.00,VWS V14.01,2013-11-24 01:47:00,
2013-11-23 18:49:00,22.1,5.4,30.09,NNE,14,0.0,0.0,48,0.00,,---,0.00,VWS V14.01,2013-11-24 01:49:00,
2013-11-23 18:50:00,22.1,5.4,30.09,NNE,14,0.0,0.0,48,0.00,,---,0.00,VWS V14.01,2013-11-24 01:50:00,
2013-11-23 18:51:00,22.1,5.0,30.09,NNE,14,0.0,0.0,47,0.00,,---,0.00,VWS V14.01,2013-11-24 01:51:00,
2013-11-23 18:52:00,22.1,5.0,30.09,NNE,14,0.0,0.0,47,0.00,,---,0.00,VWS V14.01,2013-11-24 01:52:00,
2013-11-23 18:54:00,22.3,4.7,30.09,NNE,14,0.0,0.0,46,0.00,,---,0.00,VWS V14.01,2013-11-24 01:54:00,
2013-11-23 18:55:00,22.3,4.7,30.09,NNE,14,0.0,0.0,46,0.00,,---,0.00,VWS V14.01,2013-11-24 01:55:00,
2013-11-23 18:57:00,22.5,4.8,30.09,NNE,14,0.0,0.0,46,0.00,,---,0.00,VWS V14.01,2013-11-24 01:57:00,
2013-11-23 19:00:00,22.3,4.7,30.09,NNE,14,0.0,0.0,46,0.00,,---,0.00,VWS V14.01,2013-11-24 02:00:00,
2013-11-23 19:02:00,22.1,4.5,30.09,NNE,14,0.0,0.0,46,0.00,,---,0.00,VWS V14.01,2013-11-24 02:02:00,
2013-11-23 19:03:00,22.1,4.5,30.09,NNE,14,0.0,0.0,46,0.00,,---,0.00,VWS V14.01,2013-11-24 02:03:00,
2013-11-23 19:05:00,21.9,4.3,30.09,NNE,14,0.0,0.0,46,0.00,,---,0.00,VWS V14.01,2013-11-24 02:05:00,
2013-11-23 19:06:00,21.9,4.3,30.09,NNE,14,0.0,0.0,46,0.00,,---,0.00,VWS V14.01,2013-11-24 02:06:00,
2013-11-23 19:07:00,21.7,4.2,30.09,NNE,14,0.0,0.0,46,0.00,,---,0.00,VWS V14.01,2013-11-24 02:07:00,
2013-11-23 19:08:00,21.7,4.2,30.09,NNE,14,0.0,0.0,46,0.00,,---,0.00,VWS V14.01,2013-11-24 02:08:00,
2013-11-23 19:10:00,21.7,4.2,30.09,NNE,14,0.0,0.0,46,0.00,,---,0.00,VWS V14.01,2013-11-24 02:10:00,
2013-11-23 19:11:00,21.7,4.2,30.09,NNE,14,0.0,0.0,46,0.00,,---,0.00,VWS V14.01,2013-11-24 02:11:00,
2013-11-23 19:12:00,21.7,4.2,30.09,NNE,14,0.0,0.0,46,0.00,,---,0.00,VWS V14.01,2013-11-24 02:12:00,
2013-11-23 19:13:00,21.7,4.2,30.09,NNE,14,0.0,0.0,46,0.00,,---,0.00,VWS V14.01,2013-11-24 02:13:00,
2013-11-23 19:15:00,21.7,4.2,30.09,NNE,14,0.0,0.0,46,0.00,,---,0.00,VWS V14.01,2013-11-24 02:15:00,
2013-11-23 19:16:00,21.7,4.2,30.09,NNE,14,0.0,0.0,46,0.00,,---,0.00,VWS V14.01,2013-11-24 02:16:00,
2013-11-23 19:17:00,21.7,4.2,30.09,NNE,14,0.0,0.0,46,0.00,,---,0.00,VWS V14.01,2013-11-24 02:17:00,
2013-11-23 19:18:00,21.6,4.0,30.09,NNE,14,0.0,0.0,46,0.00,,---,0.00,VWS V14.01,2013-11-24 02:18:00,
2013-11-23 19:20:00,21.4,4.3,30.09,NNE,14,0.0,0.0,47,0.00,,---,0.00,VWS V14.01,2013-11-24 02:20:00,
2013-11-23 19:21:00,21.4,4.3,30.09,NNE,14,0.0,0.0,47,0.00,,---,0.00,VWS V14.01,2013-11-24 02:21:00,
2013-11-23 19:22:00,21.4,4.3,30.09,NNE,14,0.0,0.0,47,0.00,,---,0.00,VWS V14.01,2013-11-24 02:22:00,
2013-11-23 19:23:00,21.4,4.3,30.09,NNE,14,0.0,0.0,47,0.00,,---,0.00,VWS V14.01,2013-11-24 02:23:00,
2013-11-23 19:25:00,21.2,4.1,30.09,NNE,14,0.0,0.0,47,0.00,,---,0.00,VWS V14.01,2013-11-24 02:25:00,
2013-11-23 19:26:00,21.2,4.1,30.09,NNE,14,0.0,0.0,47,0.00,,---,0.00,VWS V14.01,2013-11-24 02:26:00,
2013-11-23 19:27:00,21.2,4.1,30.09,NNE,14,0.0,0.0,47,0.00,,---,0.00,VWS V14.01,2013-11-24 02:27:00,
2013-11-23 19:28:00,21.0,4.0,30.09,NNE,14,0.0,0.0,47,0.00,,---,0.00,VWS V14.01,2013-11-24 02:28:00,
2013-11-23 19:30:00,20.8,4.2,30.09,NNE,14,0.0,0.0,48,0.00,,,0.00,VWS V15.00,2013-11-24 02:30:00,
2013-11-23 19:31:00,21.0,4.4,30.09,NNE,14,0.0,0.0,48,0.00,,---,0.00,VWS V14.01,2013-11-24 02:31:00,
2013-11-23 19:32:00,21.0,4.0,30.09,NNE,14,0.0,0.0,47,0.00,,---,0.00,VWS V14.01,2013-11-24 02:32:00,
2013-11-23 19:33:00,21.0,4.0,30.09,NNE,14,0.0,0.0,47,0.00,,---,0.00,VWS V14.01,2013-11-24 02:33:00,
2013-11-23 19:36:00,20.8,3.8,30.09,NNE,14,0.0,0.0,47,0.00,,---,0.00,VWS V14.01,2013-11-24 02:36:00,
2013-11-23 19:37:00,20.7,3.6,30.09,NNE,14,0.0,0.0,47,0.00,,---,0.00,VWS V14.01,2013-11-24 02:37:00,
2013-11-23 19:38:00,20.7,3.6,30.09,NNE,14,0.0,0.0,47,0.00,,---,0.00,VWS V14.01,2013-11-24 02:38:00,
2013-11-23 19:41:00,20.5,3.5,30.09,NNE,14,0.0,0.0,47,0.00,,---,0.00,VWS V14.01,2013-11-24 02:41:00,
2013-11-23 19:42:00,20.5,3.5,30.09,NNE,14,0.0,0.0,47,0.00,,---,0.00,VWS V14.01,2013-11-24 02:42:00,
2013-11-23 19:43:00,20.5,3.5,30.09,NNE,14,0.0,0.0,47,0.00,,---,0.00,VWS V14.01,2013-11-24 02:43:00,
2013-11-23 19:44:00,20.3,3.8,30.09,NNE,14,0.0,0.0,48,0.00,,---,0.00,VWS V14.01,2013-11-24 02:44:00,
2013-11-23 19:45:00,20.3,4.6,30.09,NNE,14,0.0,0.0,50,0.00,,,0.00,VWS V15.00,2013-11-24 02:45:00,
2013-11-23 19:46:00,20.3,3.8,30.09,NNE,14,0.0,0.0,48,0.00,,---,0.00,VWS V14.01,2013-11-24 02:46:00,
2013-11-23 19:47:00,20.3,4.2,30.09,NNE,14,0.0,0.0,49,0.00,,---,0.00,VWS V14.01,2013-11-24 02:47:00,
2013-11-23 19:48:00,20.3,4.2,30.09,NNE,14,0.0,0.0,49,0.00,,---,0.00,VWS V14.01,2013-11-24 02:48:00,
2013-11-23 19:49:00,20.3,4.2,30.09,NNE,14,0.0,0.0,49,0.00,,---,0.00,VWS V14.01,2013-11-24 02:49:00,
2013-11-23 19:52:00,20.3,4.2,30.09,NNE,14,0.0,0.0,49,0.00,,---,0.00,VWS V14.01,2013-11-24 02:52:00,
2013-11-23 19:53:00,20.3,4.2,30.09,NNE,14,0.0,0.0,49,0.00,,---,0.00,VWS V14.01,2013-11-24 02:53:00,
2013-11-23 19:54:00,20.3,4.2,30.09,NNE,14,0.0,0.0,49,0.00,,---,0.00,VWS V14.01,2013-11-24 02:54:00,
2013-11-23 19:55:00,20.3,4.2,30.09,NNE,14,0.0,0.0,49,0.00,,---,0.00,VWS V14.01,2013-11-24 02:55:00,
2013-11-23 19:57:00,20.3,4.2,30.09,NNE,14,0.0,0.0,49,0.00,,---,0.00,VWS V14.01,2013-11-24 02:57:00,
2013-11-23 19:58:00,20.3,4.2,30.09,NNE,14,0.0,0.0,49,0.00,,---,0.00,VWS V14.01,2013-11-24 02:58:00,
2013-11-23 19:59:00,20.1,4.0,30.09,NNE,14,0.0,0.0,49,0.00,,---,0.00,VWS V14.01,2013-11-24 02:59:00,
2013-11-23 20:00:00,21.4,4.3,30.09,SSW,197,4.9,4.9,47,0.00,,,0.00,VWS V15.00,2013-11-24 03:00:00,
2013-11-23 20:01:00,20.1,4.0,30.09,NNE,14,0.0,0.0,49,0.00,,---,0.00,VWS V14.01,2013-11-24 03:01:00,
2013-11-23 20:02:00,20.1,4.0,30.09,NNE,14,0.0,0.0,49,0.00,,---,0.00,VWS V14.01,2013-11-24 03:02:00,
2013-11-23 20:03:00,19.9,3.9,30.09,NNE,14,0.0,0.0,49,0.00,,---,0.00,VWS V14.01,2013-11-24 03:03:00,
2013-11-23 20:04:00,19.9,3.9,30.09,NNE,14,0.0,0.0,49,0.00,,---,0.00,VWS V14.01,2013-11-24 03:04:00,
2013-11-23 20:06:00,19.9,3.9,30.09,NNE,14,0.0,0.0,49,0.00,,---,0.00,VWS V14.01,2013-11-24 03:06:00,
2013-11-23 20:07:00,19.9,3.9,30.09,NNE,14,0.0,0.0,49,0.00,,---,0.00,VWS V14.01,2013-11-24 03:07:00,
2013-11-23 20:08:00,20.1,4.5,30.09,NNE,14,0.0,0.0,50,0.00,,---,0.00,VWS V14.01,2013-11-24 03:08:00,
2013-11-23 20:09:00,20.1,4.5,30.09,NNE,14,0.0,0.0,50,0.00,,---,0.00,VWS V14.01,2013-11-24 03:09:00,
2013-11-23 20:11:00,20.3,4.6,30.09,NNE,14,0.0,0.0,50,0.00,,---,0.00,VWS V14.01,2013-11-24 03:11:00,
2013-11-23 20:12:00,20.5,4.8,30.09,NNE,14,2.2,2.2,50,0.00,,---,0.00,VWS V14.01,2013-11-24 03:12:00,
2013-11-23 20:13:00,20.5,4.8,30.09,NNE,14,2.2,2.2,50,0.00,,---,0.00,VWS V14.01,2013-11-24 03:13:00,
2013-11-23 20:14:00,20.5,4.8,30.09,NNE,14,0.0,0.0,50,0.00,,---,0.00,VWS V14.01,2013-11-24 03:14:00,
2013-11-23 20:15:00,22.3,4.2,30.09,SSW,194,2.7,3.1,45,0.00,,,0.00,VWS V15.00,2013-11-24 03:15:00,
2013-11-23 20:16:00,20.7,4.5,30.09,NNE,14,2.7,3.1,49,0.00,,---,0.00,VWS V14.01,2013-11-24 03:16:00,
2013-11-23 20:17:00,20.7,4.5,30.09,NNE,14,2.7,3.1,49,0.00,,---,0.00,VWS V14.01,2013-11-24 03:17:00,
2013-11-23 20:18:00,20.8,4.7,30.09,NNE,14,0.0,2.7,49,0.00,,---,0.00,VWS V14.01,2013-11-24 03:18:00,
2013-11-23 20:19:00,21.0,4.9,30.09,NNE,14,0.0,0.0,49,0.00,,---,0.00,VWS V14.01,2013-11-24 03:19:00,
2013-11-23 20:21:00,21.0,4.4,30.09,NNE,14,0.0,0.0,48,0.00,,---,0.00,VWS V14.01,2013-11-24 03:21:00,
2013-11-23 20:22:00,21.0,4.4,30.09,NNE,14,0.0,0.0,48,0.00,,---,0.00,VWS V14.01,2013-11-24 03:22:00,
2013-11-23 20:23:00,21.0,4.4,30.09,NNE,14,0.0,0.0,48,0.00,,---,0.00,VWS V14.01,2013-11-24 03:23:00,
2013-11-23 20:24:00,21.0,4.4,30.09,NNE,14,0.0,0.0,48,0.00,,---,0.00,VWS V14.01,2013-11-24 03:24:00,
2013-11-23 20:25:00,21.0,4.4,30.09,NNE,14,0.0,0.0,48,0.00,,---,0.00,VWS V14.01,2013-11-24 03:25:00,
2013-11-23 20:27:00,21.0,4.4,30.09,NNE,14,0.0,0.0,48,0.00,,---,0.00,VWS V14.01,2013-11-24 03:27:00,
2013-11-23 20:28:00,21.0,4.4,30.09,NNE,14,0.0,0.0,48,0.00,,---,0.00,VWS V14.01,2013-11-24 03:28:00,
2013-11-23 20:29:00,21.0,4.4,30.09,NNE,14,0.0,0.0,48,0.00,,---,0.00,VWS V14.01,2013-11-24 03:29:00,
2013-11-23 20:30:00,20.8,4.2,30.09,NNE,14,0.0,0.0,48,0.00,,---,0.00,VWS V14.01,2013-11-24 03:30:00,
2013-11-23 20:32:00,20.7,4.1,30.09,NNE,14,0.0,0.0,48,0.00,,---,0.00,VWS V14.01,2013-11-24 03:32:00,
2013-11-23 20:33:00,20.7,4.1,30.09,NNE,14,0.0,0.0,48,0.00,,---,0.00,VWS V14.01,2013-11-24 03:33:00,
2013-11-23 20:34:00,20.5,3.9,30.09,NNE,14,0.0,0.0,48,0.00,,---,0.00,VWS V14.01,2013-11-24 03:34:00,
2013-11-23 20:35:00,20.5,3.9,30.09,NNE,14,0.0,0.0,48,0.00,,---,0.00,VWS V14.01,2013-11-24 03:35:00,
2013-11-23 20:37:00,20.3,3.8,30.09,NNE,14,0.0,0.0,48,0.00,,---,0.00,VWS V14.01,2013-11-24 03:37:00,
2013-11-23 20:38:00,20.3,3.8,30.09,NNE,14,0.0,0.0,48,0.00,,---,0.00,VWS V14.01,2013-11-24 03:38:00,
2013-11-23 20:39:00,20.3,4.2,30.09,NNE,14,0.0,0.0,49,0.00,,---,0.00,VWS V14.01,2013-11-24 03:39:00,
2013-11-23 20:40:00,20.3,4.2,30.09,NNE,14,0.0,0.0,49,0.00,,---,0.00,VWS V14.01,2013-11-24 03:40:00,
2013-11-23 20:43:00,20.3,4.6,30.09,NNE,14,0.0,0.0,50,0.00,,---,0.00,VWS V14.01,2013-11-24 03:43:00,
2013-11-23 20:44:00,20.3,4.6,30.09,NNE,14,0.0,0.0,50,0.00,,---,0.00,VWS V14.01,2013-11-24 03:44:00,
2013-11-23 20:45:00,20.5,4.8,30.09,NNE,14,0.0,0.0,50,0.00,,---,0.00,VWS V14.01,2013-11-24 03:45:00,
2013-11-23 20:46:00,20.5,4.8,30.09,NNE,14,0.0,0.0,50,0.00,,---,0.00,VWS V14.01,2013-11-24 03:46:00,
2013-11-23 20:48:00,20.7,5.0,30.09,NNE,14,0.0,0.0,50,0.00,,---,0.00,VWS V14.01,2013-11-24 03:48:00,
2013-11-23 20:49:00,20.7,4.5,30.09,NNE,14,3.6,3.6,49,0.00,,---,0.00,VWS V14.01,2013-11-24 03:49:00,
2013-11-23 20:51:00,20.8,4.7,30.09,NNE,14,3.1,3.1,49,0.00,,---,0.00,VWS V14.01,2013-11-24 03:51:00,
2013-11-23 20:53:00,21.0,4.4,30.09,WNW,293,3.6,4.0,48,0.00,,---,0.00,VWS V14.01,2013-11-24 03:53:00,
2013-11-23 20:54:00,21.0,4.4,30.09,SSW,200,4.0,4.0,48,0.00,,---,0.00,VWS V14.01,2013-11-24 03:54:00,
2013-11-23 20:56:00,21.2,4.6,30.09,SSW,194,4.0,5.8,48,0.00,,---,0.00,VWS V14.01,2013-11-24 03:56:00,
2013-11-23 20:57:00,21.2,4.6,30.09,SSW,193,3.6,3.6,48,0.00,,---,0.00,VWS V14.01,2013-11-24 03:57:00,
2013-11-23 20:59:00,21.4,4.3,30.09,SSW,198,3.6,5.4,47,0.00,,---,0.00,VWS V14.01,2013-11-24 03:59:00,
2013-11-23 21:00:00,21.4,4.3,30.09,SSW,195,4.9,5.4,47,0.00,,---,0.00,VWS V14.01,2013-11-24 04:00:00,
2013-11-23 21:01:00,21.6,4.5,30.09,SSW,194,3.6,4.9,47,0.00,,---,0.00,VWS V14.01,2013-11-24 04:01:00,
2013-11-23 21:02:00,21.6,4.0,30.09,SSW,193,3.1,3.6,46,0.00,,---,0.00,VWS V14.01,2013-11-24 04:02:00,
2013-11-23 21:04:00,21.6,4.0,30.09,SSW,194,4.0,4.0,46,0.00,,---,0.00,VWS V14.01,2013-11-24 04:04:00,
2013-11-23 21:05:00,21.7,4.2,30.09,SSW,197,3.6,4.0,46,0.00,,---,0.00,VWS V14.01,2013-11-24 04:05:00,
2013-11-23 21:06:00,21.7,4.2,30.09,SSW,193,4.0,4.0,46,0.00,,---,0.00,VWS V14.01,2013-11-24 04:06:00,
2013-11-23 21:07:00,21.7,4.2,30.09,SSW,195,3.6,5.4,46,0.00,,---,0.00,VWS V14.01,2013-11-24 04:07:00,
2013-11-23 21:09:00,21.9,3.8,30.09,SSW,193,5.4,5.4,45,0.00,,---,0.00,VWS V14.01,2013-11-24 04:09:00,
2013-11-23 21:10:00,21.9,3.8,30.09,SSW,195,3.6,3.6,45,0.00,,---,0.00,VWS V14.01,2013-11-24 04:10:00,
2013-11-23 21:12:00,22.1,4.0,30.09,SSW,195,4.0,4.0,45,0.00,,---,0.00,VWS V14.01,2013-11-24 04:12:00,
2013-11-23 21:14:00,22.3,4.2,30.09,SSW,192,4.0,4.0,45,0.00,,---,0.00,VWS V14.01,2013-11-24 04:14:00,
2013-11-23 21:15:00,22.3,4.2,30.09,SSW,194,2.7,3.1,45,0.00,,---,0.00,VWS V14.01,2013-11-24 04:15:00,
2013-11-23 21:16:00,22.5,4.3,30.09,SSW,194,2.7,2.7,45,0.00,,---,0.00,VWS V14.01,2013-11-24 04:16:00,
2013-11-23 21:17:00,22.5,4.3,30.06,SSW,195,3.6,3.6,45,0.00,,---,0.00,VWS V14.01,2013-11-24 04:17:00,
2013-11-23 21:19:00,22.5,4.3,30.06,SSW,195,2.7,3.1,45,0.00,,---,0.00,VWS V14.01,2013-11-24 04:19:00,
2013-11-23 21:20:00,22.5,4.3,30.06,SSW,195,3.1,3.1,45,0.00,,---,0.00,VWS V14.01,2013-11-24 04:20:00,
2013-11-23 21:21:00,22.5,3.9,30.06,SSW,196,2.7,3.6,44,0.00,,---,0.00,VWS V14.01,2013-11-24 04:21:00,
2013-11-23 21:22:00,22.5,3.9,30.06,SSW,195,2.7,3.1,44,0.00,,---,0.00,VWS V14.01,2013-11-24 04:22:00,
2013-11-23 21:23:00,22.5,3.9,30.06,SSW,195,3.1,3.1,44,0.00,,---,0.00,VWS V14.01,2013-11-24 04:23:00,
2013-11-23 21:25:00,22.5,3.9,30.06,SSW,194,2.7,3.1,44,0.00,,---,0.00,VWS V14.01,2013-11-24 04:25:00,
2013-11-23 21:26:00,22.5,3.9,30.06,SSW,194,2.7,2.7,44,0.00,,---,0.00,VWS V14.01,2013-11-24 04:26:00,
2013-11-23 21:27:00,22.5,3.9,30.06,SSW,194,2.7,2.7,44,0.00,,---,0.00,VWS V14.01,2013-11-24 04:27:00,
2013-11-23 21:28:00,22.5,3.9,30.06,SSW,194,2.2,2.2,44,0.00,,---,0.00,VWS V14.01,2013-11-24 04:28:00,
2013-11-23 21:30:00,22.5,3.9,30.06,SSW,194,0.0,0.0,44,0.00,,---,0.00,VWS V14.01,2013-11-24 04:30:00,
2013-11-23 21:31:00,22.5,3.9,30.06,SSW,194,0.0,0.0,44,0.00,,---,0.00,VWS V14.01,2013-11-24 04:31:00,
2013-11-23 21:32:00,22.3,3.7,30.09,SSW,194,0.0,0.0,44,0.00,,---,0.00,VWS V14.01,2013-11-24 04:32:00,
2013-11-23 21:33:00,22.3,3.7,30.09,SSW,194,0.0,0.0,44,0.00,,---,0.00,VWS V14.01,2013-11-24 04:33:00,
2013-11-23 21:35:00,22.1,3.5,30.09,SSW,194,0.0,0.0,44,0.00,,---,0.00,VWS V14.01,2013-11-24 04:35:00,
2013-11-23 21:36:00,22.1,3.5,30.09,SSW,195,0.0,0.0,44,0.00,,---,0.00,VWS V14.01,2013-11-24 04:36:00,
2013-11-23 21:37:00,22.1,3.5,30.09,SSW,194,0.0,0.0,44,0.00,,---,0.00,VWS V14.01,2013-11-24 04:37:00,
2013-11-23 21:38:00,21.9,3.4,30.09,SSW,194,0.0,0.0,44,0.00,,---,0.00,VWS V14.01,2013-11-24 04:38:00,
2013-11-23 21:40:00,21.7,3.2,30.09,SSW,194,0.0,0.0,44,0.00,,---,0.00,VWS V14.01,2013-11-24 04:40:00,
2013-11-23 21:41:00,21.6,3.0,30.09,SSW,194,0.0,0.0,44,0.00,,---,0.00,VWS V14.01,2013-11-24 04:41:00,
2013-11-23 21:42:00,21.4,2.9,30.09,SSW,194,0.0,0.0,44,0.00,,---,0.00,VWS V14.01,2013-11-24 04:42:00,
2013-11-23 21:44:00,21.2,3.2,30.09,SSW,194,0.0,0.0,45,0.00,,---,0.00,VWS V14.01,2013-11-24 04:44:00,
2013-11-23 21:45:00,21.0,3.0,30.09,SSW,193,2.7,2.7,45,0.00,,---,0.00,VWS V14.01,2013-11-24 04:45:00,
2013-11-23 21:46:00,20.8,2.9,30.06,South,191,3.6,3.6,45,0.00,,---,0.00,VWS V14.01,2013-11-24 04:46:00,
2013-11-23 21:47:00,20.7,3.2,30.06,SSW,202,4.9,4.9,46,0.00,,---,0.00,VWS V14.01,2013-11-24 04:47:00,
2013-11-23 21:49:00,20.7,3.2,30.06,SSW,197,4.0,4.0,46,0.00,,---,0.00,VWS V14.01,2013-11-24 04:49:00,
2013-11-23 21:50:00,20.7,3.2,30.06,SSW,195,3.6,4.0,46,0.00,,---,0.00,VWS V14.01,2013-11-24 04:50:00,
2013-11-23 21:51:00,20.8,3.8,30.06,SSW,199,3.6,4.9,47,0.00,,---,0.00,VWS V14.01,2013-11-24 04:51:00,
2013-11-23 21:52:00,20.8,3.8,30.06,SSW,197,4.0,4.9,47,0.00,,---,0.00,VWS V14.01,2013-11-24 04:52:00,
2013-11-23 21:54:00,21.0,4.0,30.06,SSW,199,5.4,5.8,47,0.00,,---,0.00,VWS V14.01,2013-11-24 04:54:00,
2013-11-23 21:55:00,21.0,4.0,30.06,SSW,194,4.0,4.0,47,0.00,,---,0.00,VWS V14.01,2013-11-24 04:55:00,
2013-11-23 21:56:00,21.2,4.1,30.06,SSW,198,5.4,5.4,47,0.00,,---,0.00,VWS V14.01,2013-11-24 04:56:00,
2013-11-23 21:57:00,21.2,4.1,30.06,SSW,197,2.7,4.0,47,0.00,,---,0.00,VWS V14.01,2013-11-24 04:57:00,
2013-11-23 21:58:00,21.2,4.1,30.06,SSW,192,5.4,5.4,47,0.00,,---,0.00,VWS V14.01,2013-11-24 04:58:00,
2013-11-23 21:59:00,21.4,3.8,30.06,SSW,197,3.6,5.8,46,0.00,,---,0.00,VWS V14.01,2013-11-24 04:59:00,
2013-11-23 22:00:00,21.4,3.8,30.06,SSW,197,4.0,4.0,46,0.00,,---,0.00,VWS V14.01,2013-11-24 05:00:00,
2013-11-23 22:01:00,21.4,3.8,30.06,SSW,198,3.6,4.0,46,0.00,,---,0.00,VWS V14.01,2013-11-24 05:01:00,
2013-11-23 22:02:00,21.4,3.8,30.09,SSW,198,4.9,4.9,46,0.00,,---,0.00,VWS V14.01,2013-11-24 05:02:00,
2013-11-23 22:06:00,21.4,3.3,30.09,SSW,196,5.8,5.8,45,0.00,,---,0.00,VWS V14.01,2013-11-24 05:06:00,
2013-11-23 22:07:00,21.6,3.5,30.09,SSW,198,4.0,4.9,45,0.00,,---,0.00,VWS V14.01,2013-11-24 05:07:00,
2013-11-23 22:11:00,21.7,3.7,30.09,SSW,193,3.6,4.0,45,0.00,,---,0.00,VWS V14.01,2013-11-24 05:11:00,
2013-11-23 22:12:00,21.7,3.7,30.09,SSW,196,4.9,4.9,45,0.00,,---,0.00,VWS V14.01,2013-11-24 05:12:00,
2013-11-23 22:15:00,21.7,3.7,30.09,SSW,196,3.6,3.6,45,0.00,,,0.00,VWS V15.00,2013-11-24 05:15:00,
2013-11-23 22:16:00,21.9,3.8,30.09,SSW,192,2.7,2.7,45,0.00,,---,0.00,VWS V14.01,2013-11-24 05:16:00,
2013-11-23 22:17:00,21.9,3.8,30.09,South,190,2.7,3.1,45,0.00,,---,0.00,VWS V14.01,2013-11-24 05:17:00,
2013-11-23 22:21:00,21.9,3.8,30.09,South,191,2.7,3.6,45,0.00,,---,0.00,VWS V14.01,2013-11-24 05:21:00,
2013-11-23 22:22:00,22.1,3.5,30.09,South,190,4.9,4.9,44,0.00,,---,0.00,VWS V14.01,2013-11-24 05:22:00,
2013-11-23 22:26:00,22.3,3.7,30.09,South,184,2.7,3.6,44,0.00,,---,0.00,VWS V14.01,2013-11-24 05:26:00,
2013-11-23 22:27:00,22.3,3.7,30.09,South,176,3.6,3.6,44,0.00,,---,0.00,VWS V14.01,2013-11-24 05:27:00,
2013-11-23 22:30:00,22.5,3.9,30.06,South,181,2.7,3.6,44,0.00,,,0.00,VWS V15.00,2013-11-24 05:30:00,
2013-11-23 22:31:00,22.1,3.5,30.09,SSW,197,4.0,4.9,44,0.00,,---,0.00,VWS V14.01,2013-11-24 05:31:00,
2013-11-23 22:32:00,22.1,3.5,30.09,SSW,197,3.1,4.0,44,0.00,,---,0.00,VWS V14.01,2013-11-24 05:32:00,
2013-11-23 22:33:00,22.1,3.5,30.09,SSW,192,5.8,5.8,44,0.00,,---,0.00,VWS V14.01,2013-11-24 05:33:00,
2013-11-23 22:36:00,22.1,3.5,30.09,South,189,4.0,5.8,44,0.00,,---,0.00,VWS V14.01,2013-11-24 05:36:00,
2013-11-23 22:37:00,22.1,3.5,30.09,South,190,3.6,5.8,44,0.00,,---,0.00,VWS V14.01,2013-11-24 05:37:00,
2013-11-23 22:38:00,22.1,3.5,30.09,SSW,197,3.6,4.0,44,0.00,,---,0.00,VWS V14.01,2013-11-24 05:38:00,
2013-11-23 22:41:00,21.9,3.4,30.09,South,191,3.1,3.1,44,0.00,,---,0.00,VWS V14.01,2013-11-24 05:41:00,
2013-11-23 22:42:00,21.9,3.4,30.09,SSW,193,4.0,4.0,44,0.00,,---,0.00,VWS V14.01,2013-11-24 05:42:00,
2013-11-23 22:43:00,21.9,3.4,30.09,SSW,197,3.6,5.4,44,0.00,,---,0.00,VWS V14.01,2013-11-24 05:43:00,
2013-11-23 22:44:00,21.9,3.4,30.09,SSW,196,4.9,4.9,44,0.00,,---,0.00,VWS V14.01,2013-11-24 05:44:00,
2013-11-23 22:45:00,22.1,3.5,30.06,South,185,0.0,0.0,44,0.00,,,0.00,VWS V15.00,2013-11-24 05:45:00,
2013-11-23 22:46:00,22.1,3.5,30.09,SSW,196,4.9,4.9,44,0.00,,---,0.00,VWS V14.01,2013-11-24 05:46:00,
2013-11-23 22:47:00,22.1,3.5,30.09,SSW,196,4.9,4.9,44,0.00,,---,0.00,VWS V14.01,2013-11-24 05:47:00,
2013-11-23 22:48:00,22.1,3.5,30.09,SSW,192,3.6,4.0,44,0.00,,---,0.00,VWS V14.01,2013-11-24 05:48:00,
2013-11-23 22:49:00,22.1,3.5,30.09,SSW,193,4.0,4.0,44,0.00,,---,0.00,VWS V14.01,2013-11-24 05:49:00,
2013-11-23 22:52:00,21.9,3.4,30.09,South,187,2.7,3.6,44,0.00,,---,0.00,VWS V14.01,2013-11-24 05:52:00,
2013-11-23 22:53:00,21.9,3.4,30.09,SSW,195,3.6,3.6,44,0.00,,---,0.00,VWS V14.01,2013-11-24 05:53:00,
2013-11-23 22:54:00,21.9,3.4,30.09,SSW,195,3.1,4.0,44,0.00,,---,0.00,VWS V14.01,2013-11-24 05:54:00,
2013-11-23 22:57:00,21.6,3.0,30.09,SSW,194,3.1,3.6,44,0.00,,---,0.00,VWS V14.01,2013-11-24 05:57:00,
2013-11-23 22:58:00,21.6,3.0,30.09,SSW,194,3.6,3.6,44,0.00,,---,0.00,VWS V14.01,2013-11-24 05:58:00,
2013-11-23 22:59:00,21.6,3.0,30.09,SSW,194,3.1,3.1,44,0.00,,---,0.00,VWS V14.01,2013-11-24 05:59:00,
2013-11-23 23:00:00,21.0,3.0,30.06,South,184,0.0,0.0,45,0.00,,,0.00,VWS V15.00,2013-11-24 06:00:00,
2013-11-23 23:02:00,21.4,3.3,30.09,SSW,194,2.7,2.7,45,0.00,,---,0.00,VWS V14.01,2013-11-24 06:02:00,
2013-11-23 23:03:00,21.4,3.3,30.09,SSW,194,3.1,3.1,45,0.00,,---,0.00,VWS V14.01,2013-11-24 06:03:00,
2013-11-23 23:04:00,21.4,3.3,30.09,SSW,194,2.2,3.1,45,0.00,,---,0.00,VWS V14.01,2013-11-24 06:04:00,
2013-11-23 23:07:00,21.4,3.3,30.09,SSW,196,2.7,3.1,45,0.00,,---,0.00,VWS V14.01,2013-11-24 06:07:00,
2013-11-23 23:08:00,21.4,3.3,30.09,SSW,196,3.6,4.0,45,0.00,,---,0.00,VWS V14.01,2013-11-24 06:08:00,
2013-11-23 23:09:00,21.4,3.3,30.09,SSW,193,3.6,4.0,45,0.00,,---,0.00,VWS V14.01,2013-11-24 06:09:00,
2013-11-23 23:12:00,21.6,3.5,30.09,SSW,192,3.6,4.0,45,0.00,,---,0.00,VWS V14.01,2013-11-24 06:12:00,
2013-11-23 23:13:00,21.6,3.5,30.09,SSW,193,4.0,4.0,45,0.00,,---,0.00,VWS V14.01,2013-11-24 06:13:00,
2013-11-23 23:14:00,21.7,3.7,30.09,SSW,193,3.1,3.1,45,0.00,,---,0.00,VWS V14.01,2013-11-24 06:14:00,
2013-11-23 23:15:00,20.8,3.3,30.06,SSW,194,3.6,4.0,46,0.00,,,0.00,VWS V15.00,2013-11-24 06:15:00,
2013-11-23 23:17:00,21.7,3.7,30.06,SSW,196,2.7,2.7,45,0.00,,---,0.00,VWS V14.01,2013-11-24 06:17:00,
2013-11-23 23:18:00,21.7,3.7,30.06,SSW,192,3.1,3.1,45,0.00,,---,0.00,VWS V14.01,2013-11-24 06:18:00,
2013-11-23 23:19:00,21.7,3.7,30.06,SSW,204,3.1,4.9,45,0.00,,---,0.00,VWS V14.01,2013-11-24 06:19:00,
2013-11-23 23:22:00,21.9,3.4,30.06,SSW,194,4.9,4.9,44,0.00,,---,0.00,VWS V14.01,2013-11-24 06:22:00,
2013-11-23 23:23:00,21.9,3.4,30.06,SSW,197,4.0,4.0,44,0.00,,---,0.00,VWS V14.01,2013-11-24 06:23:00,
2013-11-23 23:24:00,21.9,3.4,30.06,SSW,198,2.7,2.7,44,0.00,,---,0.00,VWS V14.01,2013-11-24 06:24:00,
2013-11-23 23:27:00,22.1,3.5,30.06,SSW,200,5.8,5.8,44,0.00,,---,0.00,VWS V14.01,2013-11-24 06:27:00,
2013-11-23 23:28:00,22.1,3.5,30.06,SSW,202,5.4,5.4,44,0.00,,---,0.00,VWS V14.01,2013-11-24 06:28:00,
2013-11-23 23:29:00,22.5,3.9,30.06,SSW,192,4.9,5.4,44,0.00,,---,0.00,VWS V14.01,2013-11-24 06:29:00,
2013-11-23 23:30:00,22.5,3.9,30.06,South,183,3.6,3.6,44,0.00,,---,0.00,VWS V14.01,2013-11-24 06:30:00,
2013-11-23 23:33:00,22.8,4.2,30.06,South,185,0.0,0.0,44,0.00,,---,0.00,VWS V14.01,2013-11-24 06:33:00,
2013-11-23 23:34:00,22.8,4.2,30.06,South,185,0.0,0.0,44,0.00,,---,0.00,VWS V14.01,2013-11-24 06:34:00,
2013-11-23 23:35:00,22.8,4.2,30.06,South,185,0.0,0.0,44,0.00,,---,0.00,VWS V14.01,2013-11-24 06:35:00,
2013-11-23 23:38:00,22.5,3.9,30.06,South,185,0.0,0.0,44,0.00,,---,0.00,VWS V14.01,2013-11-24 06:38:00,
2013-11-23 23:39:00,22.5,3.9,30.06,South,185,0.0,0.0,44,0.00,,---,0.00,VWS V14.01,2013-11-24 06:39:00,
2013-11-23 23:40:00,22.3,3.7,30.06,South,185,2.2,2.2,44,0.00,,---,0.00,VWS V14.01,2013-11-24 06:40:00,
2013-11-23 23:43:00,22.3,3.7,30.06,South,185,2.7,2.7,44,0.00,,---,0.00,VWS V14.01,2013-11-24 06:43:00,
2013-11-23 23:44:00,22.3,3.7,30.06,South,185,0.0,2.2,44,0.00,,---,0.00,VWS V14.01,2013-11-24 06:44:00,
2013-11-23 23:45:00,22.1,3.5,30.06,South,185,0.0,0.0,44,0.00,,---,0.00,VWS V14.01,2013-11-24 06:45:00,
2013-11-23 23:48:00,21.9,3.4,30.06,South,185,0.0,0.0,44,0.00,,---,0.00,VWS V14.01,2013-11-24 06:48:00,
2013-11-23 23:49:00,21.7,3.2,30.06,South,185,0.0,0.0,44,0.00,,---,0.00,VWS V14.01,2013-11-24 06:49:00,
2013-11-23 23:50:00,21.7,3.2,30.06,South,185,0.0,0.0,44,0.00,,---,0.00,VWS V14.01,2013-11-24 06:50:00,
2013-11-23 23:53:00,21.4,2.9,30.06,South,185,0.0,0.0,44,0.00,,---,0.00,VWS V14.01,2013-11-24 06:53:00,
2013-11-23 23:55:00,21.2,2.7,30.06,South,185,0.0,0.0,44,0.00,,---,0.00,VWS V14.01,2013-11-24 06:55:00,
2013-11-23 23:58:00,21.2,3.2,30.06,South,184,0.0,0.0,45,0.00,,---,0.00,VWS V14.01,2013-11-24 06:58:00,